SIA211 WSSS-YSSY
Flight info
| Callsign | SIA211 |
|---|---|
| Flight time | 6h 48m |
| Altitude | 37000 |
| Route | IDBUD1B IDBUD T24 SURGA M635 UDONO/N0493F390 M635 BLI G326 VINAX T74 VEPAP Y105 TARAL Y59 RIVET |
| Aircraft | A388/J-SADE2E3FGHIJ3J4J5M1RWXY/LB1D1 |
Departure
| Time | 2026-05-07 07:19 |
|---|---|
| Airport | Singapore Changi Airport (WSSS) |
Arrival
| Time | 2026-05-07 14:07 |
|---|---|
| Airport | Sydney Kingsford Smith International Airport (YSSY) |
| Time | Latitude | Longitude | Altitude | Speed | Heading |
|---|---|---|---|---|---|
| 2026-05-07 06:36 | 1.35614 | 103.98440 | 35 ft | 0 kts | 157° |
| 2026-05-07 07:01 | 1.35616 | 103.98439 | 35 ft | 2 kts | 158° |
| 2026-05-07 07:01 | 1.35641 | 103.98431 | 33 ft | 4 kts | 166° |
| 2026-05-07 07:02 | 1.35667 | 103.98426 | 34 ft | 4 kts | 177° |
| 2026-05-07 07:02 | 1.35694 | 103.98427 | 34 ft | 4 kts | 197° |
| 2026-05-07 07:02 | 1.35716 | 103.98439 | 33 ft | 4 kts | 239° |
| 2026-05-07 07:02 | 1.35720 | 103.98454 | 30 ft | 0 kts | 292° |
| 2026-05-07 07:06 | 1.35722 | 103.98448 | 55 ft | 3 kts | 292° |
| 2026-05-07 07:06 | 1.35739 | 103.98417 | 29 ft | 6 kts | 320° |
| 2026-05-07 07:06 | 1.35751 | 103.98410 | 35 ft | 0 kts | 335° |
| 2026-05-07 07:06 | 1.35752 | 103.98410 | 35 ft | 0 kts | 335° |
| 2026-05-07 07:07 | 1.35753 | 103.98409 | 35 ft | 4 kts | 336° |
| 2026-05-07 07:07 | 1.35756 | 103.98408 | 35 ft | 0 kts | 337° |
| 2026-05-07 07:08 | 1.35758 | 103.98407 | 35 ft | 5 kts | 338° |
| 2026-05-07 07:08 | 1.35759 | 103.98406 | 35 ft | 0 kts | 339° |
| 2026-05-07 07:08 | 1.35762 | 103.98405 | 35 ft | 0 kts | 339° |
| 2026-05-07 07:10 | 1.35761 | 103.98405 | 35 ft | 0 kts | 354° |
| 2026-05-07 07:10 | 1.35761 | 103.98404 | 35 ft | 0 kts | 1° |
| 2026-05-07 07:10 | 1.35759 | 103.98402 | 35 ft | 0 kts | 27° |
| 2026-05-07 07:10 | 1.35760 | 103.98403 | 35 ft | 2 kts | 26° |
| 2026-05-07 07:11 | 1.35773 | 103.98409 | 34 ft | 4 kts | 23° |
| 2026-05-07 07:11 | 1.35799 | 103.98420 | 35 ft | 7 kts | 23° |
| 2026-05-07 07:11 | 1.35862 | 103.98448 | 35 ft | 12 kts | 22° |
| 2026-05-07 07:11 | 1.35957 | 103.98486 | 35 ft | 17 kts | 22° |
| 2026-05-07 07:12 | 1.36077 | 103.98534 | 35 ft | 21 kts | 21° |
| 2026-05-07 07:12 | 1.36220 | 103.98591 | 35 ft | 24 kts | 22° |
| 2026-05-07 07:12 | 1.36377 | 103.98662 | 35 ft | 26 kts | 24° |
| 2026-05-07 07:12 | 1.36548 | 103.98736 | 35 ft | 28 kts | 22° |
| 2026-05-07 07:13 | 1.36726 | 103.98810 | 35 ft | 26 kts | 23° |
| 2026-05-07 07:13 | 1.36791 | 103.98904 | 35 ft | 16 kts | 104° |
| 2026-05-07 07:13 | 1.36748 | 103.99011 | 35 ft | 17 kts | 114° |
| 2026-05-07 07:13 | 1.36697 | 103.99127 | 35 ft | 19 kts | 114° |
| 2026-05-07 07:14 | 1.36642 | 103.99251 | 35 ft | 20 kts | 114° |
| 2026-05-07 07:14 | 1.36584 | 103.99383 | 35 ft | 21 kts | 114° |
| 2026-05-07 07:14 | 1.36525 | 103.99520 | 35 ft | 22 kts | 112° |
| 2026-05-07 07:14 | 1.36467 | 103.99664 | 35 ft | 23 kts | 113° |
| 2026-05-07 07:15 | 1.36405 | 103.99809 | 35 ft | 19 kts | 114° |
| 2026-05-07 07:15 | 1.36325 | 103.99875 | 35 ft | 5 kts | 166° |
| 2026-05-07 07:15 | 1.36315 | 103.99877 | 35 ft | 1 kts | 171° |
| 2026-05-07 07:15 | 1.36294 | 103.99881 | 35 ft | 5 kts | 171° |
| 2026-05-07 07:16 | 1.36247 | 103.99887 | 35 ft | 8 kts | 176° |
| 2026-05-07 07:16 | 1.36181 | 103.99885 | 35 ft | 11 kts | 190° |
| 2026-05-07 07:16 | 1.36115 | 103.99864 | 35 ft | 0 kts | 202° |
| 2026-05-07 07:17 | 1.36063 | 103.99841 | 35 ft | 15 kts | 202° |
| 2026-05-07 07:18 | 1.35932 | 103.99786 | 35 ft | 31 kts | 204° |
| 2026-05-07 07:18 | 1.35549 | 103.99626 | 35 ft | 96 kts | 203° |
| 2026-05-07 07:18 | 1.34725 | 103.99277 | 35 ft | 153 kts | 202° |
| 2026-05-07 07:18 | 1.33640 | 103.98830 | 115 ft | 177 kts | 191° |
| 2026-05-07 07:19 | 1.32546 | 103.98335 | 523 ft | 174 kts | 196° |
| 2026-05-07 07:19 | 1.31437 | 103.97815 | 1011 ft | 173 kts | 200° |
| 2026-05-07 07:19 | 1.30330 | 103.97336 | 1461 ft | 180 kts | 201° |
| 2026-05-07 07:19 | 1.29099 | 103.96856 | 1727 ft | 202 kts | 201° |
| 2026-05-07 07:20 | 1.27729 | 103.96312 | 2132 ft | 222 kts | 201° |
| 2026-05-07 07:20 | 1.26225 | 103.95707 | 2543 ft | 244 kts | 202° |
| 2026-05-07 07:20 | 1.24592 | 103.95023 | 2956 ft | 264 kts | 202° |
| 2026-05-07 07:20 | 1.22744 | 103.94584 | 3274 ft | 284 kts | 181° |
| 2026-05-07 07:21 | 1.20777 | 103.94894 | 3835 ft | 289 kts | 165° |
| 2026-05-07 07:21 | 1.18821 | 103.95414 | 4449 ft | 292 kts | 166° |
| 2026-05-07 07:21 | 1.16839 | 103.95911 | 5106 ft | 295 kts | 166° |
| 2026-05-07 07:21 | 1.14828 | 103.96404 | 5757 ft | 297 kts | 166° |
| 2026-05-07 07:22 | 1.12811 | 103.96898 | 6393 ft | 300 kts | 166° |
| 2026-05-07 07:22 | 1.10841 | 103.97588 | 6968 ft | 302 kts | 153° |
| 2026-05-07 07:22 | 1.09072 | 103.98674 | 7580 ft | 303 kts | 142° |
| 2026-05-07 07:22 | 1.07414 | 103.99990 | 8167 ft | 306 kts | 141° |
| 2026-05-07 07:23 | 1.05719 | 104.01311 | 8647 ft | 314 kts | 141° |
| 2026-05-07 07:23 | 1.03990 | 104.02727 | 8805 ft | 330 kts | 135° |
| 2026-05-07 07:23 | 1.02534 | 104.04534 | 9265 ft | 335 kts | 121° |
| 2026-05-07 07:23 | 1.01500 | 104.06625 | 9870 ft | 336 kts | 112° |
| 2026-05-07 07:24 | 1.00604 | 104.08798 | 10384 ft | 340 kts | 112° |
| 2026-05-07 07:24 | 0.99681 | 104.10979 | 10897 ft | 342 kts | 112° |
| 2026-05-07 07:24 | 0.98745 | 104.13179 | 11440 ft | 345 kts | 112° |
| 2026-05-07 07:24 | 0.97804 | 104.15396 | 11954 ft | 348 kts | 112° |
| 2026-05-07 07:25 | 0.95908 | 104.19893 | 13016 ft | 354 kts | 112° |
| 2026-05-07 07:25 | 0.94931 | 104.22170 | 13519 ft | 358 kts | 115° |
| 2026-05-07 07:25 | 0.93702 | 104.24346 | 13975 ft | 361 kts | 122° |
| 2026-05-07 07:26 | 0.92353 | 104.26470 | 14454 ft | 363 kts | 121° |
| 2026-05-07 07:26 | 0.91011 | 104.28616 | 14893 ft | 366 kts | 121° |
| 2026-05-07 07:26 | 0.89663 | 104.30782 | 15361 ft | 368 kts | 121° |
| 2026-05-07 07:26 | 0.88307 | 104.32965 | 15816 ft | 371 kts | 121° |
| 2026-05-07 07:27 | 0.86940 | 104.35164 | 16263 ft | 374 kts | 121° |
| 2026-05-07 07:27 | 0.85563 | 104.37376 | 16708 ft | 376 kts | 121° |
| 2026-05-07 07:27 | 0.84176 | 104.39605 | 17140 ft | 379 kts | 121° |
| 2026-05-07 07:27 | 0.82782 | 104.41845 | 17574 ft | 381 kts | 121° |
| 2026-05-07 07:28 | 0.81306 | 104.44055 | 17993 ft | 384 kts | 124° |
| 2026-05-07 07:28 | 0.79761 | 104.46211 | 18356 ft | 387 kts | 124° |
| 2026-05-07 07:28 | 0.78207 | 104.48394 | 18726 ft | 389 kts | 124° |
| 2026-05-07 07:28 | 0.76628 | 104.50619 | 19093 ft | 391 kts | 124° |
| 2026-05-07 07:29 | 0.75055 | 104.52835 | 19446 ft | 393 kts | 124° |
| 2026-05-07 07:29 | 0.73374 | 104.55005 | 19778 ft | 396 kts | 133° |
| 2026-05-07 07:29 | 0.71225 | 104.56743 | 20133 ft | 400 kts | 147° |
| 2026-05-07 07:29 | 0.68693 | 104.57906 | 20471 ft | 404 kts | 161° |
| 2026-05-07 07:30 | 0.65979 | 104.58685 | 20791 ft | 407 kts | 162° |
| 2026-05-07 07:30 | 0.63252 | 104.59480 | 21126 ft | 409 kts | 162° |
| 2026-05-07 07:30 | 0.60511 | 104.60294 | 21348 ft | 413 kts | 162° |
| 2026-05-07 07:30 | 0.57739 | 104.61122 | 21524 ft | 417 kts | 162° |
| 2026-05-07 07:31 | 0.54951 | 104.61954 | 21790 ft | 419 kts | 162° |
| 2026-05-07 07:31 | 0.52155 | 104.62787 | 22066 ft | 421 kts | 162° |
| 2026-05-07 07:31 | 0.49364 | 104.63685 | 22318 ft | 421 kts | 155° |
| 2026-05-07 07:31 | 0.46823 | 104.65128 | 22577 ft | 420 kts | 141° |
| 2026-05-07 07:32 | 0.44717 | 104.67147 | 22822 ft | 420 kts | 127° |
| 2026-05-07 07:32 | 0.43140 | 104.69594 | 23071 ft | 420 kts | 117° |
| 2026-05-07 07:32 | 0.41771 | 104.72176 | 23313 ft | 422 kts | 116° |
| 2026-05-07 07:32 | 0.40408 | 104.74781 | 23550 ft | 423 kts | 117° |
| 2026-05-07 07:33 | 0.39011 | 104.77384 | 23759 ft | 425 kts | 117° |
| 2026-05-07 07:33 | 0.37607 | 104.79942 | 23981 ft | 426 kts | 118° |
| 2026-05-07 07:33 | 0.36166 | 104.82531 | 24184 ft | 427 kts | 118° |
| 2026-05-07 07:33 | 0.34713 | 104.85126 | 24386 ft | 429 kts | 118° |
| 2026-05-07 07:34 | 0.33251 | 104.87731 | 24600 ft | 430 kts | 118° |
| 2026-05-07 07:34 | 0.31782 | 104.90350 | 24819 ft | 431 kts | 118° |
| 2026-05-07 07:34 | 0.30313 | 104.92968 | 25039 ft | 433 kts | 118° |
| 2026-05-07 07:34 | 0.28842 | 104.95591 | 25240 ft | 434 kts | 118° |
| 2026-05-07 07:35 | 0.27360 | 104.98234 | 25458 ft | 436 kts | 118° |
| 2026-05-07 07:35 | 0.25876 | 105.00882 | 25673 ft | 437 kts | 118° |
| 2026-05-07 07:35 | 0.24385 | 105.03539 | 25891 ft | 439 kts | 118° |
| 2026-05-07 07:35 | 0.22870 | 105.06187 | 26112 ft | 440 kts | 119° |
| 2026-05-07 07:36 | 0.21330 | 105.08837 | 26334 ft | 441 kts | 119° |
| 2026-05-07 07:36 | 0.19783 | 105.11495 | 26569 ft | 443 kts | 119° |
| 2026-05-07 07:36 | 0.18252 | 105.14129 | 26793 ft | 444 kts | 119° |
| 2026-05-07 07:36 | 0.16698 | 105.16812 | 27015 ft | 446 kts | 119° |
| 2026-05-07 07:37 | 0.15143 | 105.19498 | 27255 ft | 448 kts | 119° |
| 2026-05-07 07:37 | 0.13581 | 105.22199 | 27507 ft | 449 kts | 119° |
| 2026-05-07 07:37 | 0.12010 | 105.24915 | 27740 ft | 451 kts | 119° |
| 2026-05-07 07:37 | 0.10438 | 105.27634 | 27995 ft | 453 kts | 119° |
| 2026-05-07 07:38 | 0.08860 | 105.30364 | 28257 ft | 454 kts | 119° |
| 2026-05-07 07:38 | 0.07274 | 105.33105 | 28520 ft | 456 kts | 119° |
| 2026-05-07 07:38 | 0.05699 | 105.35829 | 28754 ft | 458 kts | 119° |
| 2026-05-07 07:38 | 0.04081 | 105.38626 | 29032 ft | 460 kts | 119° |
| 2026-05-07 07:39 | 0.02498 | 105.41364 | 29312 ft | 462 kts | 119° |
| 2026-05-07 07:39 | 0.00888 | 105.44148 | 29624 ft | 464 kts | 119° |
| 2026-05-07 07:39 | -0.00729 | 105.46945 | 29900 ft | 466 kts | 119° |
| 2026-05-07 07:39 | -0.02353 | 105.49753 | 30150 ft | 467 kts | 119° |
| 2026-05-07 07:40 | -0.03987 | 105.52579 | 30414 ft | 469 kts | 119° |
| 2026-05-07 07:40 | -0.05621 | 105.55404 | 30700 ft | 470 kts | 119° |
| 2026-05-07 07:40 | -0.07262 | 105.58241 | 30966 ft | 472 kts | 119° |
| 2026-05-07 07:40 | -0.08908 | 105.61087 | 31238 ft | 474 kts | 119° |
| 2026-05-07 07:41 | -0.10557 | 105.63939 | 31496 ft | 476 kts | 119° |
| 2026-05-07 07:41 | -0.12219 | 105.66813 | 31764 ft | 477 kts | 119° |
| 2026-05-07 07:41 | -0.13861 | 105.69653 | 32024 ft | 479 kts | 119° |
| 2026-05-07 07:41 | -0.15536 | 105.72549 | 32291 ft | 481 kts | 119° |
| 2026-05-07 07:42 | -0.17211 | 105.75446 | 32544 ft | 483 kts | 119° |
| 2026-05-07 07:42 | -0.18895 | 105.78358 | 32798 ft | 485 kts | 119° |
| 2026-05-07 07:42 | -0.20586 | 105.81281 | 33055 ft | 486 kts | 119° |
| 2026-05-07 07:42 | -0.22282 | 105.84215 | 33307 ft | 488 kts | 119° |
| 2026-05-07 07:43 | -0.23984 | 105.87157 | 33548 ft | 490 kts | 119° |
| 2026-05-07 07:43 | -0.25692 | 105.90112 | 33796 ft | 492 kts | 119° |
| 2026-05-07 07:43 | -0.27395 | 105.93085 | 34007 ft | 494 kts | 118° |
| 2026-05-07 07:43 | -0.29078 | 105.96082 | 34230 ft | 495 kts | 118° |
| 2026-05-07 07:44 | -0.30754 | 105.99092 | 34452 ft | 497 kts | 118° |
| 2026-05-07 07:44 | -0.32436 | 106.02115 | 34688 ft | 498 kts | 118° |
| 2026-05-07 07:44 | -0.34115 | 106.05145 | 34907 ft | 499 kts | 118° |
| 2026-05-07 07:44 | -0.35789 | 106.08187 | 35127 ft | 501 kts | 118° |
| 2026-05-07 07:45 | -0.37468 | 106.11244 | 35367 ft | 502 kts | 118° |
| 2026-05-07 07:45 | -0.39151 | 106.14308 | 35608 ft | 503 kts | 118° |
| 2026-05-07 07:45 | -0.40834 | 106.17375 | 35844 ft | 504 kts | 118° |
| 2026-05-07 07:45 | -0.42522 | 106.20452 | 36083 ft | 505 kts | 118° |
| 2026-05-07 07:46 | -0.44194 | 106.23500 | 36334 ft | 506 kts | 118° |
| 2026-05-07 07:46 | -0.45889 | 106.26593 | 36586 ft | 507 kts | 118° |
| 2026-05-07 07:46 | -0.47583 | 106.29688 | 36815 ft | 508 kts | 118° |
| 2026-05-07 07:46 | -0.49274 | 106.32787 | 37061 ft | 503 kts | 118° |
| 2026-05-07 07:47 | -0.50926 | 106.35818 | 37281 ft | 492 kts | 118° |
| 2026-05-07 07:47 | -0.52559 | 106.38815 | 37498 ft | 490 kts | 118° |
| 2026-05-07 07:47 | -0.54188 | 106.41806 | 37746 ft | 490 kts | 118° |
| 2026-05-07 07:47 | -0.55819 | 106.44800 | 37972 ft | 491 kts | 118° |
| 2026-05-07 07:48 | -0.57451 | 106.47795 | 38207 ft | 491 kts | 118° |
| 2026-05-07 07:48 | -0.59084 | 106.50792 | 38438 ft | 491 kts | 118° |
| 2026-05-07 07:48 | -0.60696 | 106.53752 | 38637 ft | 491 kts | 118° |
| 2026-05-07 07:48 | -0.62328 | 106.56748 | 38832 ft | 491 kts | 118° |
| 2026-05-07 07:49 | -0.63979 | 106.59779 | 39048 ft | 490 kts | 118° |
| 2026-05-07 07:49 | -0.65588 | 106.62731 | 39226 ft | 488 kts | 118° |
| 2026-05-07 07:49 | -0.67318 | 106.65628 | 39252 ft | 486 kts | 126° |
| 2026-05-07 07:49 | -0.69530 | 106.68173 | 39013 ft | 485 kts | 137° |
| 2026-05-07 07:50 | -0.72216 | 106.70223 | 38899 ft | 487 kts | 149° |
| 2026-05-07 07:50 | -0.78359 | 106.73201 | 38899 ft | 495 kts | 149° |
| 2026-05-07 07:51 | -0.83827 | 106.77446 | 38905 ft | 503 kts | 135° |
| 2026-05-07 07:51 | -0.88636 | 106.82606 | 38899 ft | 508 kts | 131° |
| 2026-05-07 07:52 | -0.93274 | 106.87878 | 38900 ft | 505 kts | 131° |
| 2026-05-07 07:52 | -0.97902 | 106.93121 | 38901 ft | 506 kts | 131° |
| 2026-05-07 07:53 | -1.02573 | 106.98390 | 38903 ft | 506 kts | 131° |
| 2026-05-07 07:53 | -1.07241 | 107.03652 | 38898 ft | 506 kts | 131° |
| 2026-05-07 07:54 | -1.11116 | 107.08021 | 38900 ft | 505 kts | 131° |
| 2026-05-07 07:54 | -1.15779 | 107.13279 | 38902 ft | 505 kts | 131° |
| 2026-05-07 07:55 | -1.20438 | 107.18533 | 38899 ft | 505 kts | 131° |
| 2026-05-07 07:55 | -1.25095 | 107.23784 | 38904 ft | 505 kts | 130° |
| 2026-05-07 07:56 | -1.29753 | 107.29036 | 38900 ft | 504 kts | 130° |
| 2026-05-07 07:56 | -1.34402 | 107.34280 | 38901 ft | 504 kts | 130° |
| 2026-05-07 07:57 | -1.39039 | 107.39538 | 38899 ft | 504 kts | 130° |
| 2026-05-07 07:57 | -1.43612 | 107.44857 | 38897 ft | 504 kts | 130° |
| 2026-05-07 07:58 | -1.48186 | 107.50176 | 38898 ft | 505 kts | 130° |
| 2026-05-07 07:58 | -1.52774 | 107.55495 | 38900 ft | 504 kts | 130° |
| 2026-05-07 07:59 | -1.57362 | 107.60812 | 38902 ft | 506 kts | 130° |
| 2026-05-07 07:59 | -1.61957 | 107.66138 | 38900 ft | 506 kts | 129° |
| 2026-05-07 08:00 | -1.66522 | 107.71428 | 38900 ft | 505 kts | 129° |
| 2026-05-07 08:00 | -1.71117 | 107.76755 | 38898 ft | 505 kts | 129° |
| 2026-05-07 08:01 | -1.75705 | 107.82073 | 38901 ft | 505 kts | 129° |
| 2026-05-07 08:01 | -1.80302 | 107.87403 | 38904 ft | 506 kts | 129° |
| 2026-05-07 08:02 | -1.84893 | 107.92725 | 38903 ft | 505 kts | 129° |
| 2026-05-07 08:02 | -1.89463 | 107.98024 | 38902 ft | 504 kts | 129° |
| 2026-05-07 08:03 | -1.94057 | 108.03351 | 38904 ft | 505 kts | 129° |
| 2026-05-07 08:03 | -1.98648 | 108.08675 | 38903 ft | 504 kts | 129° |
| 2026-05-07 08:04 | -2.03197 | 108.13953 | 38900 ft | 505 kts | 129° |
| 2026-05-07 08:04 | -2.07783 | 108.19271 | 38906 ft | 505 kts | 129° |
| 2026-05-07 08:05 | -2.12368 | 108.24584 | 38908 ft | 505 kts | 129° |
| 2026-05-07 08:05 | -2.16966 | 108.29913 | 38904 ft | 506 kts | 129° |
| 2026-05-07 08:06 | -2.21574 | 108.35254 | 38905 ft | 506 kts | 129° |
| 2026-05-07 08:06 | -2.26170 | 108.40582 | 38909 ft | 506 kts | 129° |
| 2026-05-07 08:07 | -2.30768 | 108.45914 | 38906 ft | 507 kts | 129° |
| 2026-05-07 08:07 | -2.35374 | 108.51254 | 38906 ft | 507 kts | 129° |
| 2026-05-07 08:08 | -2.39958 | 108.56571 | 38905 ft | 508 kts | 129° |
| 2026-05-07 08:08 | -2.44580 | 108.61932 | 38905 ft | 509 kts | 129° |
| 2026-05-07 08:09 | -2.49202 | 108.67292 | 38909 ft | 509 kts | 129° |
| 2026-05-07 08:09 | -2.53842 | 108.72659 | 38909 ft | 510 kts | 129° |
| 2026-05-07 08:10 | -2.58483 | 108.78020 | 38910 ft | 510 kts | 129° |
| 2026-05-07 08:10 | -2.63128 | 108.83389 | 38910 ft | 510 kts | 129° |
| 2026-05-07 08:11 | -2.67771 | 108.88759 | 38910 ft | 510 kts | 129° |
| 2026-05-07 08:11 | -2.72413 | 108.94127 | 38909 ft | 510 kts | 129° |
| 2026-05-07 08:12 | -2.77057 | 108.99498 | 38909 ft | 509 kts | 129° |
| 2026-05-07 08:12 | -2.81672 | 109.04836 | 38909 ft | 510 kts | 129° |
| 2026-05-07 08:13 | -2.86306 | 109.10196 | 38909 ft | 509 kts | 129° |
| 2026-05-07 08:13 | -2.90946 | 109.15568 | 38907 ft | 510 kts | 129° |
| 2026-05-07 08:14 | -2.95564 | 109.20934 | 38909 ft | 509 kts | 129° |
| 2026-05-07 08:14 | -3.00193 | 109.26316 | 38907 ft | 509 kts | 129° |
| 2026-05-07 08:15 | -3.04814 | 109.31687 | 38909 ft | 509 kts | 129° |
| 2026-05-07 08:15 | -3.09437 | 109.37059 | 38908 ft | 509 kts | 129° |
| 2026-05-07 08:16 | -3.14050 | 109.42421 | 38909 ft | 508 kts | 129° |
| 2026-05-07 08:16 | -3.18665 | 109.47787 | 38912 ft | 508 kts | 129° |
| 2026-05-07 08:17 | -3.23241 | 109.53106 | 38910 ft | 507 kts | 129° |
| 2026-05-07 08:17 | -3.27847 | 109.58464 | 38913 ft | 507 kts | 129° |
| 2026-05-07 08:18 | -3.32443 | 109.63809 | 38909 ft | 507 kts | 129° |
| 2026-05-07 08:18 | -3.37046 | 109.69164 | 38912 ft | 506 kts | 129° |
| 2026-05-07 08:19 | -3.41644 | 109.74514 | 38911 ft | 506 kts | 129° |
| 2026-05-07 08:19 | -3.46200 | 109.79817 | 38910 ft | 504 kts | 129° |
| 2026-05-07 08:20 | -3.50761 | 109.85122 | 38911 ft | 502 kts | 129° |
| 2026-05-07 08:20 | -3.55322 | 109.90432 | 38915 ft | 503 kts | 129° |
| 2026-05-07 08:21 | -3.59894 | 109.95755 | 38912 ft | 502 kts | 129° |
| 2026-05-07 08:21 | -3.64455 | 110.01067 | 38911 ft | 503 kts | 129° |
| 2026-05-07 08:22 | -3.69019 | 110.06381 | 38915 ft | 504 kts | 129° |
| 2026-05-07 08:22 | -3.73586 | 110.11701 | 38913 ft | 503 kts | 129° |
| 2026-05-07 08:23 | -3.78156 | 110.17025 | 38913 ft | 504 kts | 129° |
| 2026-05-07 08:23 | -3.82718 | 110.22340 | 38917 ft | 503 kts | 129° |
| 2026-05-07 08:24 | -3.87278 | 110.27655 | 38916 ft | 504 kts | 129° |
| 2026-05-07 08:24 | -3.91810 | 110.32937 | 38919 ft | 502 kts | 129° |
| 2026-05-07 08:25 | -3.96368 | 110.38258 | 38911 ft | 503 kts | 128° |
| 2026-05-07 08:25 | -4.00666 | 110.43810 | 38916 ft | 503 kts | 126° |
| 2026-05-07 08:26 | -4.07108 | 110.52150 | 38919 ft | 505 kts | 126° |
| 2026-05-07 08:26 | -4.11376 | 110.57675 | 38915 ft | 504 kts | 126° |
| 2026-05-07 08:27 | -4.15665 | 110.63230 | 38918 ft | 504 kts | 127° |
| 2026-05-07 08:27 | -4.19963 | 110.68798 | 38915 ft | 506 kts | 126° |
| 2026-05-07 08:28 | -4.24264 | 110.74373 | 38918 ft | 505 kts | 126° |
| 2026-05-07 08:28 | -4.28564 | 110.79946 | 38923 ft | 506 kts | 126° |
| 2026-05-07 08:29 | -4.32872 | 110.85531 | 38917 ft | 508 kts | 126° |
| 2026-05-07 08:29 | -4.37194 | 110.91135 | 38920 ft | 507 kts | 126° |
| 2026-05-07 08:30 | -4.41514 | 110.96737 | 38918 ft | 508 kts | 126° |
| 2026-05-07 08:30 | -4.45837 | 111.02345 | 38919 ft | 509 kts | 126° |
| 2026-05-07 08:31 | -4.50150 | 111.07941 | 38919 ft | 509 kts | 126° |
| 2026-05-07 08:31 | -4.54497 | 111.13583 | 38919 ft | 510 kts | 127° |
| 2026-05-07 08:32 | -4.58807 | 111.19178 | 38917 ft | 510 kts | 127° |
| 2026-05-07 08:32 | -4.63158 | 111.24823 | 38921 ft | 511 kts | 127° |
| 2026-05-07 08:33 | -4.67524 | 111.30454 | 38919 ft | 511 kts | 127° |
| 2026-05-07 08:33 | -4.71893 | 111.36086 | 38921 ft | 512 kts | 127° |
| 2026-05-07 08:34 | -4.76267 | 111.41730 | 38921 ft | 512 kts | 127° |
| 2026-05-07 08:34 | -4.80641 | 111.47376 | 38923 ft | 512 kts | 127° |
| 2026-05-07 08:35 | -4.84979 | 111.52978 | 38922 ft | 512 kts | 127° |
| 2026-05-07 08:35 | -4.89361 | 111.58639 | 38924 ft | 513 kts | 127° |
| 2026-05-07 08:36 | -4.93736 | 111.64291 | 38924 ft | 513 kts | 127° |
| 2026-05-07 08:36 | -4.98122 | 111.69958 | 38927 ft | 514 kts | 127° |
| 2026-05-07 08:37 | -5.02477 | 111.75588 | 38921 ft | 514 kts | 127° |
| 2026-05-07 08:37 | -5.06867 | 111.81263 | 38922 ft | 516 kts | 127° |
| 2026-05-07 08:38 | -5.11270 | 111.86957 | 38921 ft | 516 kts | 127° |
| 2026-05-07 08:38 | -5.15668 | 111.92645 | 38921 ft | 515 kts | 127° |
| 2026-05-07 08:39 | -5.20063 | 111.98332 | 38924 ft | 515 kts | 127° |
| 2026-05-07 08:39 | -5.24455 | 112.04016 | 38919 ft | 516 kts | 128° |
| 2026-05-07 08:40 | -5.28847 | 112.09702 | 38922 ft | 516 kts | 128° |
| 2026-05-07 08:40 | -5.33251 | 112.15405 | 38925 ft | 516 kts | 128° |
| 2026-05-07 08:41 | -5.36911 | 112.20144 | 38925 ft | 516 kts | 128° |
| 2026-05-07 08:41 | -5.41308 | 112.25840 | 38925 ft | 516 kts | 128° |
| 2026-05-07 08:42 | -5.46430 | 112.32478 | 38927 ft | 518 kts | 128° |
| 2026-05-07 08:42 | -5.50840 | 112.38194 | 38925 ft | 517 kts | 128° |
| 2026-05-07 08:43 | -5.54529 | 112.42978 | 38926 ft | 517 kts | 128° |
| 2026-05-07 08:43 | -5.58905 | 112.48653 | 38925 ft | 517 kts | 128° |
| 2026-05-07 08:44 | -5.63311 | 112.54368 | 38926 ft | 518 kts | 128° |
| 2026-05-07 08:44 | -5.67716 | 112.60083 | 38927 ft | 518 kts | 128° |
| 2026-05-07 08:45 | -5.72123 | 112.65803 | 38925 ft | 517 kts | 128° |
| 2026-05-07 08:45 | -5.76535 | 112.71531 | 38927 ft | 517 kts | 128° |
| 2026-05-07 08:46 | -5.80918 | 112.77224 | 38924 ft | 518 kts | 128° |
| 2026-05-07 08:46 | -5.85321 | 112.82943 | 38926 ft | 518 kts | 128° |
| 2026-05-07 08:47 | -5.89742 | 112.88688 | 38925 ft | 518 kts | 128° |
| 2026-05-07 08:47 | -5.94142 | 112.94408 | 38923 ft | 517 kts | 128° |
| 2026-05-07 08:48 | -5.98550 | 113.00138 | 38924 ft | 517 kts | 128° |
| 2026-05-07 08:48 | -6.02942 | 113.05850 | 38926 ft | 517 kts | 128° |
| 2026-05-07 08:49 | -6.07337 | 113.11568 | 38928 ft | 516 kts | 128° |
| 2026-05-07 08:49 | -6.11700 | 113.17246 | 38926 ft | 516 kts | 128° |
| 2026-05-07 08:50 | -6.16085 | 113.22954 | 38927 ft | 516 kts | 128° |
| 2026-05-07 08:50 | -6.20479 | 113.28676 | 38924 ft | 517 kts | 128° |
| 2026-05-07 08:51 | -6.25182 | 113.34135 | 38925 ft | 515 kts | 137° |
| 2026-05-07 08:51 | -6.30709 | 113.38709 | 38928 ft | 514 kts | 146° |
| 2026-05-07 08:52 | -6.36475 | 113.42843 | 38927 ft | 513 kts | 145° |
| 2026-05-07 08:52 | -6.42301 | 113.47059 | 38926 ft | 514 kts | 145° |
| 2026-05-07 08:53 | -6.48100 | 113.51249 | 38928 ft | 513 kts | 145° |
| 2026-05-07 08:53 | -6.53914 | 113.55446 | 38928 ft | 513 kts | 145° |
| 2026-05-07 08:54 | -6.59716 | 113.59636 | 38928 ft | 513 kts | 145° |
| 2026-05-07 08:54 | -6.65477 | 113.63797 | 38930 ft | 513 kts | 145° |
| 2026-05-07 08:55 | -6.71274 | 113.67986 | 38932 ft | 514 kts | 145° |
| 2026-05-07 08:55 | -6.77077 | 113.72181 | 38931 ft | 513 kts | 145° |
| 2026-05-07 08:56 | -6.82880 | 113.76376 | 38932 ft | 513 kts | 145° |
| 2026-05-07 08:56 | -6.88688 | 113.80577 | 38930 ft | 513 kts | 145° |
| 2026-05-07 08:57 | -6.94492 | 113.84776 | 38931 ft | 514 kts | 145° |
| 2026-05-07 08:57 | -7.00255 | 113.88946 | 38931 ft | 514 kts | 145° |
| 2026-05-07 08:58 | -7.06065 | 113.93157 | 38930 ft | 514 kts | 145° |
| 2026-05-07 08:58 | -7.11871 | 113.97370 | 38932 ft | 514 kts | 145° |
| 2026-05-07 08:59 | -7.17688 | 114.01590 | 38933 ft | 514 kts | 145° |
| 2026-05-07 08:59 | -7.23503 | 114.05811 | 38932 ft | 514 kts | 145° |
| 2026-05-07 09:00 | -7.29273 | 114.09999 | 38931 ft | 514 kts | 145° |
| 2026-05-07 09:00 | -7.35077 | 114.14215 | 38935 ft | 515 kts | 145° |
| 2026-05-07 09:01 | -7.40890 | 114.18438 | 38936 ft | 514 kts | 145° |
| 2026-05-07 09:01 | -7.46689 | 114.22653 | 38933 ft | 514 kts | 145° |
| 2026-05-07 09:02 | -7.52484 | 114.26866 | 38934 ft | 513 kts | 145° |
| 2026-05-07 09:02 | -7.58268 | 114.31071 | 38940 ft | 513 kts | 145° |
| 2026-05-07 09:03 | -7.64048 | 114.35276 | 38943 ft | 511 kts | 145° |
| 2026-05-07 09:03 | -7.69791 | 114.39456 | 38946 ft | 511 kts | 145° |
| 2026-05-07 09:04 | -7.75566 | 114.43659 | 38949 ft | 511 kts | 145° |
| 2026-05-07 09:04 | -7.81336 | 114.47861 | 38948 ft | 512 kts | 145° |
| 2026-05-07 09:05 | -7.87120 | 114.52074 | 38949 ft | 512 kts | 145° |
| 2026-05-07 09:05 | -7.92903 | 114.56288 | 38950 ft | 512 kts | 146° |
| 2026-05-07 09:06 | -7.98645 | 114.60474 | 38951 ft | 513 kts | 146° |
| 2026-05-07 09:06 | -8.04432 | 114.64694 | 38954 ft | 514 kts | 146° |
| 2026-05-07 09:07 | -8.10218 | 114.68915 | 38955 ft | 513 kts | 146° |
| 2026-05-07 09:07 | -8.16009 | 114.73141 | 38958 ft | 513 kts | 146° |
| 2026-05-07 09:08 | -8.21800 | 114.77369 | 38957 ft | 514 kts | 146° |
| 2026-05-07 09:08 | -8.27597 | 114.81603 | 38963 ft | 514 kts | 146° |
| 2026-05-07 09:09 | -8.33386 | 114.85832 | 38967 ft | 514 kts | 145° |
| 2026-05-07 09:09 | -8.39179 | 114.90066 | 38969 ft | 513 kts | 146° |
| 2026-05-07 09:10 | -8.44981 | 114.94307 | 38971 ft | 513 kts | 146° |
| 2026-05-07 09:10 | -8.50767 | 114.98540 | 38972 ft | 513 kts | 146° |
| 2026-05-07 09:11 | -8.56508 | 115.02741 | 38972 ft | 513 kts | 146° |
| 2026-05-07 09:11 | -8.62293 | 115.06975 | 38971 ft | 513 kts | 146° |
| 2026-05-07 09:12 | -8.68073 | 115.11206 | 38968 ft | 513 kts | 146° |
| 2026-05-07 09:12 | -8.73552 | 115.15827 | 38967 ft | 515 kts | 136° |
| 2026-05-07 09:13 | -8.78091 | 115.21453 | 38969 ft | 518 kts | 125° |
| 2026-05-07 09:13 | -8.81837 | 115.27692 | 38967 ft | 519 kts | 122° |
| 2026-05-07 09:14 | -8.85583 | 115.33937 | 38964 ft | 519 kts | 123° |
| 2026-05-07 09:14 | -8.89308 | 115.40158 | 38968 ft | 520 kts | 123° |
| 2026-05-07 09:15 | -8.93047 | 115.46418 | 38962 ft | 520 kts | 122° |
| 2026-05-07 09:15 | -8.96790 | 115.52689 | 38965 ft | 520 kts | 123° |
| 2026-05-07 09:16 | -9.00527 | 115.58954 | 38964 ft | 521 kts | 122° |
| 2026-05-07 09:16 | -9.04271 | 115.65234 | 38963 ft | 521 kts | 122° |
| 2026-05-07 09:17 | -9.07995 | 115.71482 | 38964 ft | 522 kts | 123° |
| 2026-05-07 09:17 | -9.11744 | 115.77775 | 38968 ft | 522 kts | 122° |
| 2026-05-07 09:18 | -9.15489 | 115.84066 | 38966 ft | 522 kts | 122° |
| 2026-05-07 09:18 | -9.19239 | 115.90368 | 38965 ft | 522 kts | 122° |
| 2026-05-07 09:19 | -9.22988 | 115.96671 | 38965 ft | 523 kts | 122° |
| 2026-05-07 09:19 | -9.26682 | 116.02940 | 38959 ft | 523 kts | 122° |
| 2026-05-07 09:20 | -9.30385 | 116.09342 | 38963 ft | 523 kts | 122° |
| 2026-05-07 09:20 | -9.34031 | 116.15673 | 38973 ft | 524 kts | 122° |
| 2026-05-07 09:21 | -9.37698 | 116.22046 | 38981 ft | 524 kts | 122° |
| 2026-05-07 09:21 | -9.41361 | 116.28437 | 38995 ft | 524 kts | 121° |
| 2026-05-07 09:22 | -9.44935 | 116.34897 | 38994 ft | 525 kts | 118° |
| 2026-05-07 09:22 | -9.48307 | 116.41462 | 38999 ft | 526 kts | 116° |
| 2026-05-07 09:23 | -9.51436 | 116.48109 | 38997 ft | 526 kts | 114° |
| 2026-05-07 09:23 | -9.54362 | 116.54896 | 39003 ft | 527 kts | 112° |
| 2026-05-07 09:24 | -9.57084 | 116.61801 | 39016 ft | 528 kts | 110° |
| 2026-05-07 09:24 | -9.59581 | 116.68793 | 39025 ft | 528 kts | 108° |
| 2026-05-07 09:25 | -9.61832 | 116.75886 | 39032 ft | 528 kts | 106° |
| 2026-05-07 09:25 | -9.63864 | 116.83009 | 39049 ft | 528 kts | 105° |
| 2026-05-07 09:26 | -9.65731 | 116.90216 | 39075 ft | 529 kts | 104° |
| 2026-05-07 09:26 | -9.67444 | 116.97463 | 39092 ft | 529 kts | 102° |
| 2026-05-07 09:27 | -9.69004 | 117.04746 | 39119 ft | 529 kts | 101° |
| 2026-05-07 09:28 | -9.71081 | 117.15756 | 39172 ft | 529 kts | 100° |
| 2026-05-07 09:28 | -9.72312 | 117.23120 | 39211 ft | 530 kts | 99° |
| 2026-05-07 09:29 | -9.73426 | 117.30453 | 39254 ft | 530 kts | 98° |
| 2026-05-07 09:29 | -9.74568 | 117.37818 | 39099 ft | 526 kts | 102° |
| 2026-05-07 09:29 | -9.75583 | 117.41358 | 38997 ft | 519 kts | 114° |
| 2026-05-07 09:30 | -9.76596 | 117.43548 | 38995 ft | 519 kts | 121° |
| 2026-05-07 09:30 | -9.80566 | 117.49677 | 38994 ft | 519 kts | 125° |
| 2026-05-07 09:31 | -9.84576 | 117.55778 | 38997 ft | 520 kts | 125° |
| 2026-05-07 09:31 | -9.89242 | 117.62873 | 38996 ft | 520 kts | 125° |
| 2026-05-07 09:32 | -9.93261 | 117.68979 | 38998 ft | 520 kts | 125° |
| 2026-05-07 09:32 | -9.96597 | 117.74050 | 38996 ft | 520 kts | 126° |
| 2026-05-07 09:33 | -10.00607 | 117.80149 | 38998 ft | 519 kts | 125° |
| 2026-05-07 09:33 | -10.04619 | 117.86255 | 38996 ft | 519 kts | 125° |
| 2026-05-07 09:34 | -10.08623 | 117.92352 | 38999 ft | 519 kts | 125° |
| 2026-05-07 09:34 | -10.12632 | 117.98459 | 38998 ft | 520 kts | 125° |
| 2026-05-07 09:35 | -10.16614 | 118.04530 | 38995 ft | 520 kts | 125° |
| 2026-05-07 09:35 | -10.20629 | 118.10653 | 38995 ft | 520 kts | 125° |
| 2026-05-07 09:36 | -10.24639 | 118.16772 | 38998 ft | 521 kts | 125° |
| 2026-05-07 09:36 | -10.28649 | 118.22894 | 38999 ft | 521 kts | 125° |
| 2026-05-07 09:37 | -10.32663 | 118.29026 | 39002 ft | 521 kts | 125° |
| 2026-05-07 09:37 | -10.36679 | 118.35164 | 39004 ft | 522 kts | 125° |
| 2026-05-07 09:38 | -10.40692 | 118.41302 | 39003 ft | 522 kts | 125° |
| 2026-05-07 09:38 | -10.44712 | 118.47452 | 39002 ft | 522 kts | 125° |
| 2026-05-07 09:39 | -10.48710 | 118.53573 | 39004 ft | 522 kts | 125° |
| 2026-05-07 09:39 | -10.52724 | 118.59721 | 39003 ft | 523 kts | 125° |
| 2026-05-07 09:40 | -10.56756 | 118.65900 | 39005 ft | 523 kts | 125° |
| 2026-05-07 09:40 | -10.60775 | 118.72064 | 39010 ft | 523 kts | 125° |
| 2026-05-07 09:41 | -10.64794 | 118.78230 | 39007 ft | 523 kts | 125° |
| 2026-05-07 09:41 | -10.68786 | 118.84359 | 39006 ft | 523 kts | 125° |
| 2026-05-07 09:42 | -10.72801 | 118.90526 | 39010 ft | 523 kts | 125° |
| 2026-05-07 09:42 | -10.76814 | 118.96694 | 39010 ft | 523 kts | 125° |
| 2026-05-07 09:43 | -10.80831 | 119.02871 | 39012 ft | 523 kts | 125° |
| 2026-05-07 09:43 | -10.84844 | 119.09047 | 39015 ft | 523 kts | 125° |
| 2026-05-07 09:44 | -10.88850 | 119.15214 | 39014 ft | 522 kts | 125° |
| 2026-05-07 09:44 | -10.92834 | 119.21352 | 39017 ft | 522 kts | 125° |
| 2026-05-07 09:45 | -10.96827 | 119.27507 | 39017 ft | 522 kts | 125° |
| 2026-05-07 09:45 | -11.00835 | 119.33688 | 39018 ft | 522 kts | 125° |
| 2026-05-07 09:46 | -11.04833 | 119.39858 | 39011 ft | 522 kts | 125° |
| 2026-05-07 09:46 | -11.08829 | 119.46027 | 39014 ft | 522 kts | 125° |
| 2026-05-07 09:47 | -11.12829 | 119.52207 | 39017 ft | 522 kts | 125° |
| 2026-05-07 09:47 | -11.16826 | 119.58386 | 39019 ft | 522 kts | 125° |
| 2026-05-07 09:48 | -11.20827 | 119.64574 | 39024 ft | 522 kts | 125° |
| 2026-05-07 09:48 | -11.24803 | 119.70729 | 39023 ft | 523 kts | 125° |
| 2026-05-07 09:49 | -11.28799 | 119.76917 | 39024 ft | 523 kts | 125° |
| 2026-05-07 09:49 | -11.32804 | 119.83122 | 39027 ft | 523 kts | 125° |
| 2026-05-07 09:50 | -11.36801 | 119.89320 | 39032 ft | 524 kts | 125° |
| 2026-05-07 09:50 | -11.40803 | 119.95529 | 39030 ft | 524 kts | 125° |
| 2026-05-07 09:51 | -11.44799 | 120.01732 | 39033 ft | 524 kts | 125° |
| 2026-05-07 09:51 | -11.48801 | 120.07950 | 39034 ft | 524 kts | 125° |
| 2026-05-07 09:52 | -11.52770 | 120.14118 | 39034 ft | 523 kts | 125° |
| 2026-05-07 09:52 | -11.56767 | 120.20334 | 39035 ft | 523 kts | 125° |
| 2026-05-07 09:53 | -11.60754 | 120.26540 | 39032 ft | 523 kts | 125° |
| 2026-05-07 09:53 | -11.64742 | 120.32749 | 39032 ft | 523 kts | 125° |
| 2026-05-07 09:54 | -11.68727 | 120.38958 | 39033 ft | 523 kts | 125° |
| 2026-05-07 09:54 | -11.72716 | 120.45177 | 39032 ft | 523 kts | 125° |
| 2026-05-07 09:55 | -11.76700 | 120.51394 | 39034 ft | 523 kts | 125° |
| 2026-05-07 09:55 | -11.80685 | 120.57614 | 39040 ft | 523 kts | 125° |
| 2026-05-07 09:56 | -11.84671 | 120.63841 | 39037 ft | 524 kts | 125° |
| 2026-05-07 09:56 | -11.88634 | 120.70034 | 39037 ft | 524 kts | 125° |
| 2026-05-07 09:57 | -11.92616 | 120.76262 | 39043 ft | 524 kts | 125° |
| 2026-05-07 09:57 | -11.96605 | 120.82503 | 39039 ft | 525 kts | 125° |
| 2026-05-07 09:58 | -12.00594 | 120.88746 | 39042 ft | 525 kts | 125° |
| 2026-05-07 09:58 | -12.04585 | 120.95000 | 39043 ft | 525 kts | 125° |
| 2026-05-07 09:59 | -12.08579 | 121.01254 | 39047 ft | 526 kts | 125° |
| 2026-05-07 09:59 | -12.12578 | 121.07515 | 39047 ft | 526 kts | 125° |
| 2026-05-07 10:00 | -12.16579 | 121.13783 | 39051 ft | 526 kts | 125° |
| 2026-05-07 10:00 | -12.20575 | 121.20050 | 39050 ft | 526 kts | 125° |
| 2026-05-07 10:01 | -12.24570 | 121.26320 | 39056 ft | 526 kts | 125° |
| 2026-05-07 10:01 | -12.28540 | 121.32556 | 39059 ft | 526 kts | 125° |
| 2026-05-07 10:02 | -12.32534 | 121.38833 | 39055 ft | 526 kts | 125° |
| 2026-05-07 10:02 | -12.36528 | 121.45113 | 39052 ft | 526 kts | 126° |
| 2026-05-07 10:03 | -12.40521 | 121.51398 | 39056 ft | 526 kts | 126° |
| 2026-05-07 10:03 | -12.44513 | 121.57684 | 39057 ft | 526 kts | 126° |
| 2026-05-07 10:04 | -12.48503 | 121.63972 | 39051 ft | 527 kts | 126° |
| 2026-05-07 10:04 | -12.52472 | 121.70230 | 39056 ft | 527 kts | 126° |
| 2026-05-07 10:05 | -12.56461 | 121.76524 | 39063 ft | 527 kts | 126° |
| 2026-05-07 10:05 | -12.60450 | 121.82823 | 39057 ft | 527 kts | 126° |
| 2026-05-07 10:06 | -12.64441 | 121.89129 | 39048 ft | 527 kts | 126° |
| 2026-05-07 10:06 | -12.68431 | 121.95437 | 39067 ft | 528 kts | 126° |
| 2026-05-07 10:07 | -12.72421 | 122.01750 | 39070 ft | 528 kts | 126° |
| 2026-05-07 10:07 | -12.76410 | 122.08066 | 39070 ft | 528 kts | 126° |
| 2026-05-07 10:08 | -12.80371 | 122.14341 | 39053 ft | 528 kts | 126° |
| 2026-05-07 10:08 | -12.84381 | 122.20701 | 39053 ft | 528 kts | 126° |
| 2026-05-07 10:09 | -12.88345 | 122.26990 | 39058 ft | 528 kts | 126° |
| 2026-05-07 10:09 | -12.92334 | 122.33322 | 39080 ft | 528 kts | 126° |
| 2026-05-07 10:10 | -12.96322 | 122.39658 | 39080 ft | 529 kts | 126° |
| 2026-05-07 10:10 | -13.00309 | 122.45998 | 39060 ft | 529 kts | 126° |
| 2026-05-07 10:11 | -13.04302 | 122.52352 | 39060 ft | 530 kts | 126° |
| 2026-05-07 10:11 | -13.08293 | 122.58705 | 39071 ft | 530 kts | 126° |
| 2026-05-07 10:12 | -13.12288 | 122.65072 | 39069 ft | 530 kts | 126° |
| 2026-05-07 10:12 | -13.16283 | 122.71441 | 39080 ft | 531 kts | 126° |
| 2026-05-07 10:13 | -13.20254 | 122.77778 | 39078 ft | 531 kts | 126° |
| 2026-05-07 10:13 | -13.24250 | 122.84158 | 39079 ft | 531 kts | 126° |
| 2026-05-07 10:14 | -13.28242 | 122.90538 | 39080 ft | 531 kts | 126° |
| 2026-05-07 10:14 | -13.32238 | 122.96928 | 39079 ft | 532 kts | 126° |
| 2026-05-07 10:15 | -13.36234 | 123.03322 | 39077 ft | 532 kts | 126° |
| 2026-05-07 10:15 | -13.40228 | 123.09720 | 39081 ft | 532 kts | 126° |
| 2026-05-07 10:16 | -13.44218 | 123.16113 | 39080 ft | 532 kts | 126° |
| 2026-05-07 10:16 | -13.48209 | 123.22514 | 39079 ft | 532 kts | 126° |
| 2026-05-07 10:17 | -13.52200 | 123.28919 | 39080 ft | 532 kts | 126° |
| 2026-05-07 10:17 | -13.56192 | 123.35331 | 39078 ft | 532 kts | 126° |
| 2026-05-07 10:18 | -13.60158 | 123.41706 | 39083 ft | 533 kts | 126° |
| 2026-05-07 10:18 | -13.64154 | 123.48133 | 39085 ft | 533 kts | 126° |
| 2026-05-07 10:19 | -13.68149 | 123.54566 | 39086 ft | 533 kts | 126° |
| 2026-05-07 10:19 | -13.71473 | 123.59920 | 39087 ft | 534 kts | 126° |
| 2026-05-07 10:20 | -13.75470 | 123.66363 | 39085 ft | 534 kts | 126° |
| 2026-05-07 10:20 | -13.79467 | 123.72816 | 39107 ft | 533 kts | 127° |
| 2026-05-07 10:21 | -13.83456 | 123.79254 | 39098 ft | 533 kts | 127° |
| 2026-05-07 10:21 | -13.87422 | 123.85661 | 39088 ft | 532 kts | 127° |
| 2026-05-07 10:22 | -13.91404 | 123.92099 | 39092 ft | 531 kts | 127° |
| 2026-05-07 10:22 | -13.95346 | 123.98478 | 39084 ft | 531 kts | 127° |
| 2026-05-07 10:23 | -13.99308 | 124.04894 | 39077 ft | 531 kts | 127° |
| 2026-05-07 10:23 | -14.03269 | 124.11314 | 39081 ft | 531 kts | 127° |
| 2026-05-07 10:24 | -14.07228 | 124.17735 | 39074 ft | 531 kts | 127° |
| 2026-05-07 10:24 | -14.11190 | 124.24165 | 39071 ft | 532 kts | 127° |
| 2026-05-07 10:25 | -14.15156 | 124.30608 | 39074 ft | 532 kts | 127° |
| 2026-05-07 10:25 | -14.19127 | 124.37063 | 39082 ft | 533 kts | 127° |
| 2026-05-07 10:26 | -14.23096 | 124.43521 | 39092 ft | 534 kts | 127° |
| 2026-05-07 10:26 | -14.27071 | 124.49993 | 39093 ft | 534 kts | 127° |
| 2026-05-07 10:27 | -14.31046 | 124.56472 | 39096 ft | 535 kts | 127° |
| 2026-05-07 10:27 | -14.35029 | 124.62968 | 39093 ft | 535 kts | 127° |
| 2026-05-07 10:28 | -14.39010 | 124.69465 | 39090 ft | 536 kts | 127° |
| 2026-05-07 10:28 | -14.42964 | 124.75925 | 39100 ft | 536 kts | 127° |
| 2026-05-07 10:29 | -14.46946 | 124.82433 | 39096 ft | 536 kts | 127° |
| 2026-05-07 10:29 | -14.50927 | 124.88947 | 39094 ft | 537 kts | 127° |
| 2026-05-07 10:30 | -14.56896 | 124.98724 | 39081 ft | 537 kts | 127° |
| 2026-05-07 10:30 | -14.60880 | 125.05254 | 39083 ft | 537 kts | 127° |
| 2026-05-07 10:31 | -14.64865 | 125.11789 | 39103 ft | 537 kts | 127° |
| 2026-05-07 10:31 | -14.68829 | 125.18295 | 39089 ft | 537 kts | 127° |
| 2026-05-07 10:32 | -14.72808 | 125.24840 | 39087 ft | 538 kts | 127° |
| 2026-05-07 10:32 | -14.76782 | 125.31396 | 39097 ft | 539 kts | 127° |
| 2026-05-07 10:33 | -14.80765 | 125.37959 | 39101 ft | 539 kts | 127° |
| 2026-05-07 10:33 | -14.84754 | 125.44538 | 39106 ft | 540 kts | 127° |
| 2026-05-07 10:34 | -14.88748 | 125.51130 | 39114 ft | 541 kts | 127° |
| 2026-05-07 10:34 | -14.92738 | 125.57723 | 39116 ft | 541 kts | 127° |
| 2026-05-07 10:35 | -14.96709 | 125.64290 | 39120 ft | 542 kts | 127° |
| 2026-05-07 10:35 | -15.00709 | 125.70911 | 39126 ft | 542 kts | 127° |
| 2026-05-07 10:36 | -15.04708 | 125.77534 | 39130 ft | 543 kts | 127° |
| 2026-05-07 10:36 | -15.08710 | 125.84170 | 39131 ft | 543 kts | 127° |
| 2026-05-07 10:37 | -15.12708 | 125.90803 | 39138 ft | 544 kts | 127° |
| 2026-05-07 10:37 | -15.16716 | 125.97459 | 39138 ft | 545 kts | 127° |
| 2026-05-07 10:38 | -15.20724 | 126.04122 | 39143 ft | 545 kts | 127° |
| 2026-05-07 10:38 | -15.24737 | 126.10798 | 39143 ft | 546 kts | 127° |
| 2026-05-07 10:39 | -15.28728 | 126.17443 | 39151 ft | 547 kts | 127° |
| 2026-05-07 10:39 | -15.32747 | 126.24141 | 39148 ft | 547 kts | 127° |
| 2026-05-07 10:40 | -15.36765 | 126.30843 | 39154 ft | 547 kts | 127° |
| 2026-05-07 10:40 | -15.40785 | 126.37554 | 39153 ft | 548 kts | 127° |
| 2026-05-07 10:41 | -15.44802 | 126.44267 | 39154 ft | 549 kts | 127° |
| 2026-05-07 10:41 | -15.48827 | 126.50999 | 39154 ft | 549 kts | 127° |
| 2026-05-07 10:42 | -15.52851 | 126.57735 | 39159 ft | 550 kts | 127° |
| 2026-05-07 10:42 | -15.56877 | 126.64481 | 39161 ft | 550 kts | 127° |
| 2026-05-07 10:43 | -15.60901 | 126.71229 | 39167 ft | 551 kts | 127° |
| 2026-05-07 10:43 | -15.64935 | 126.78001 | 39170 ft | 552 kts | 127° |
| 2026-05-07 10:44 | -15.68978 | 126.84793 | 39172 ft | 552 kts | 127° |
| 2026-05-07 10:44 | -15.73017 | 126.91585 | 39174 ft | 553 kts | 127° |
| 2026-05-07 10:45 | -15.77028 | 126.98336 | 39174 ft | 553 kts | 127° |
| 2026-05-07 10:45 | -15.81066 | 127.05139 | 39174 ft | 553 kts | 127° |
| 2026-05-07 10:46 | -15.85099 | 127.11939 | 39174 ft | 553 kts | 127° |
| 2026-05-07 10:46 | -15.89137 | 127.18755 | 39175 ft | 554 kts | 127° |
| 2026-05-07 10:47 | -15.93164 | 127.25558 | 39180 ft | 554 kts | 127° |
| 2026-05-07 10:47 | -15.97215 | 127.32408 | 39181 ft | 555 kts | 127° |
| 2026-05-07 10:48 | -16.01253 | 127.39243 | 39181 ft | 555 kts | 127° |
| 2026-05-07 10:48 | -16.05293 | 127.46088 | 39179 ft | 555 kts | 127° |
| 2026-05-07 10:49 | -16.09333 | 127.52937 | 39182 ft | 555 kts | 127° |
| 2026-05-07 10:49 | -16.13345 | 127.59748 | 39186 ft | 556 kts | 127° |
| 2026-05-07 10:50 | -16.17381 | 127.66604 | 39184 ft | 556 kts | 127° |
| 2026-05-07 10:50 | -16.21422 | 127.73476 | 39188 ft | 556 kts | 127° |
| 2026-05-07 10:51 | -16.25462 | 127.80354 | 39195 ft | 556 kts | 127° |
| 2026-05-07 10:51 | -16.29501 | 127.87235 | 39185 ft | 557 kts | 127° |
| 2026-05-07 10:52 | -16.33535 | 127.94114 | 39183 ft | 557 kts | 127° |
| 2026-05-07 10:52 | -16.37573 | 128.01008 | 39192 ft | 558 kts | 127° |
| 2026-05-07 10:53 | -16.41611 | 128.07909 | 39189 ft | 558 kts | 127° |
| 2026-05-07 10:53 | -16.45627 | 128.14776 | 39191 ft | 559 kts | 127° |
| 2026-05-07 10:54 | -16.49668 | 128.21694 | 39196 ft | 559 kts | 127° |
| 2026-05-07 10:54 | -16.53714 | 128.28630 | 39194 ft | 560 kts | 127° |
| 2026-05-07 10:55 | -16.57757 | 128.35566 | 39195 ft | 560 kts | 127° |
| 2026-05-07 10:55 | -16.61809 | 128.42519 | 39193 ft | 561 kts | 127° |
| 2026-05-07 10:56 | -16.65798 | 128.49522 | 39196 ft | 563 kts | 125° |
| 2026-05-07 10:56 | -16.69643 | 128.56645 | 39197 ft | 563 kts | 125° |
| 2026-05-07 10:57 | -16.73510 | 128.63765 | 39201 ft | 563 kts | 125° |
| 2026-05-07 10:57 | -16.77365 | 128.70826 | 39207 ft | 564 kts | 125° |
| 2026-05-07 10:58 | -16.81245 | 128.77937 | 39212 ft | 564 kts | 125° |
| 2026-05-07 10:58 | -16.85128 | 128.85060 | 39199 ft | 565 kts | 125° |
| 2026-05-07 10:59 | -16.89009 | 128.92190 | 39201 ft | 565 kts | 125° |
| 2026-05-07 10:59 | -16.92891 | 128.99330 | 39206 ft | 566 kts | 125° |
| 2026-05-07 11:00 | -16.96779 | 129.06487 | 39213 ft | 566 kts | 125° |
| 2026-05-07 11:00 | -17.00668 | 129.13654 | 39213 ft | 566 kts | 125° |
| 2026-05-07 11:01 | -17.04538 | 129.20795 | 39216 ft | 567 kts | 125° |
| 2026-05-07 11:01 | -17.08407 | 129.27940 | 39215 ft | 567 kts | 125° |
| 2026-05-07 11:02 | -17.12290 | 129.35118 | 39216 ft | 567 kts | 125° |
| 2026-05-07 11:02 | -17.16172 | 129.42303 | 39218 ft | 567 kts | 125° |
| 2026-05-07 11:03 | -17.20053 | 129.49494 | 39217 ft | 568 kts | 124° |
| 2026-05-07 11:03 | -17.23935 | 129.56694 | 39221 ft | 568 kts | 124° |
| 2026-05-07 11:04 | -17.27815 | 129.63899 | 39224 ft | 568 kts | 124° |
| 2026-05-07 11:04 | -17.31691 | 129.71103 | 39222 ft | 568 kts | 124° |
| 2026-05-07 11:05 | -17.35569 | 129.78318 | 39228 ft | 569 kts | 124° |
| 2026-05-07 11:05 | -17.38789 | 129.84317 | 39235 ft | 569 kts | 124° |
| 2026-05-07 11:06 | -17.43301 | 129.92730 | 39239 ft | 569 kts | 124° |
| 2026-05-07 11:06 | -17.46545 | 129.98785 | 39236 ft | 570 kts | 124° |
| 2026-05-07 11:07 | -17.51054 | 130.07212 | 39232 ft | 570 kts | 124° |
| 2026-05-07 11:07 | -17.54298 | 130.13280 | 39238 ft | 570 kts | 124° |
| 2026-05-07 11:08 | -17.58141 | 130.20478 | 39237 ft | 569 kts | 124° |
| 2026-05-07 11:08 | -17.62010 | 130.27732 | 39245 ft | 569 kts | 124° |
| 2026-05-07 11:09 | -17.65873 | 130.34983 | 39239 ft | 569 kts | 124° |
| 2026-05-07 11:09 | -17.69738 | 130.42244 | 39264 ft | 570 kts | 123° |
| 2026-05-07 11:10 | -17.71668 | 130.45874 | 39459 ft | 571 kts | 123° |
| 2026-05-07 11:10 | -17.73603 | 130.49515 | 39691 ft | 571 kts | 123° |
| 2026-05-07 11:10 | -17.75534 | 130.53150 | 39929 ft | 571 kts | 123° |
| 2026-05-07 11:10 | -17.77467 | 130.56792 | 40161 ft | 571 kts | 123° |
| 2026-05-07 11:11 | -17.81348 | 130.64108 | 40240 ft | 571 kts | 123° |
| 2026-05-07 11:11 | -17.85194 | 130.71371 | 40222 ft | 570 kts | 123° |
| 2026-05-07 11:12 | -17.89047 | 130.78649 | 40226 ft | 571 kts | 123° |
| 2026-05-07 11:12 | -17.92905 | 130.85948 | 40229 ft | 571 kts | 123° |
| 2026-05-07 11:13 | -17.96758 | 130.93245 | 40236 ft | 572 kts | 123° |
| 2026-05-07 11:13 | -18.00591 | 131.00515 | 40236 ft | 571 kts | 123° |
| 2026-05-07 11:14 | -18.04443 | 131.07826 | 40233 ft | 571 kts | 123° |
| 2026-05-07 11:14 | -18.08290 | 131.15137 | 40232 ft | 571 kts | 123° |
| 2026-05-07 11:15 | -18.12132 | 131.22447 | 40233 ft | 571 kts | 123° |
| 2026-05-07 11:15 | -18.15970 | 131.29759 | 40231 ft | 571 kts | 123° |
| 2026-05-07 11:16 | -18.19785 | 131.37034 | 40231 ft | 571 kts | 123° |
| 2026-05-07 11:16 | -18.23618 | 131.44352 | 40229 ft | 571 kts | 123° |
| 2026-05-07 11:17 | -18.27450 | 131.51678 | 40230 ft | 572 kts | 123° |
| 2026-05-07 11:17 | -18.31283 | 131.59013 | 40225 ft | 572 kts | 123° |
| 2026-05-07 11:18 | -18.35116 | 131.66356 | 40236 ft | 572 kts | 123° |
| 2026-05-07 11:18 | -18.38946 | 131.73704 | 40239 ft | 572 kts | 122° |
| 2026-05-07 11:19 | -18.42779 | 131.81064 | 40232 ft | 573 kts | 122° |
| 2026-05-07 11:19 | -18.46608 | 131.88427 | 40233 ft | 573 kts | 122° |
| 2026-05-07 11:20 | -18.50443 | 131.95810 | 40237 ft | 574 kts | 122° |
| 2026-05-07 11:20 | -18.54246 | 132.03139 | 40236 ft | 574 kts | 122° |
| 2026-05-07 11:21 | -18.58074 | 132.10528 | 40241 ft | 574 kts | 122° |
| 2026-05-07 11:21 | -18.61900 | 132.17919 | 40241 ft | 574 kts | 122° |
| 2026-05-07 11:22 | -18.65727 | 132.25321 | 40241 ft | 575 kts | 122° |
| 2026-05-07 11:22 | -18.69547 | 132.32721 | 40243 ft | 575 kts | 122° |
| 2026-05-07 11:23 | -18.73374 | 132.40138 | 40240 ft | 575 kts | 122° |
| 2026-05-07 11:23 | -18.77203 | 132.47566 | 40245 ft | 575 kts | 122° |
| 2026-05-07 11:24 | -18.80997 | 132.54939 | 40240 ft | 575 kts | 122° |
| 2026-05-07 11:24 | -18.84791 | 132.62364 | 40238 ft | 575 kts | 122° |
| 2026-05-07 11:25 | -18.88584 | 132.69789 | 40241 ft | 575 kts | 122° |
| 2026-05-07 11:25 | -18.92395 | 132.77252 | 40237 ft | 576 kts | 121° |
| 2026-05-07 11:26 | -18.96196 | 132.84705 | 40240 ft | 576 kts | 121° |
| 2026-05-07 11:26 | -18.99991 | 132.92154 | 40242 ft | 576 kts | 121° |
| 2026-05-07 11:27 | -19.03790 | 132.99620 | 40247 ft | 576 kts | 121° |
| 2026-05-07 11:27 | -19.07590 | 133.07098 | 40248 ft | 577 kts | 121° |
| 2026-05-07 11:28 | -19.11385 | 133.14576 | 40250 ft | 577 kts | 121° |
| 2026-05-07 11:28 | -19.15177 | 133.22057 | 40250 ft | 578 kts | 121° |
| 2026-05-07 11:29 | -19.18974 | 133.29558 | 40251 ft | 578 kts | 121° |
| 2026-05-07 11:29 | -19.22745 | 133.37017 | 40254 ft | 579 kts | 121° |
| 2026-05-07 11:30 | -19.26541 | 133.44534 | 40253 ft | 579 kts | 121° |
| 2026-05-07 11:30 | -19.30335 | 133.52057 | 40256 ft | 579 kts | 121° |
| 2026-05-07 11:31 | -19.34129 | 133.59590 | 40257 ft | 580 kts | 121° |
| 2026-05-07 11:31 | -19.37920 | 133.67127 | 40257 ft | 580 kts | 121° |
| 2026-05-07 11:32 | -19.43605 | 133.78447 | 40261 ft | 580 kts | 121° |
| 2026-05-07 11:33 | -19.47395 | 133.86005 | 40265 ft | 580 kts | 121° |
| 2026-05-07 11:33 | -19.51183 | 133.93568 | 40266 ft | 581 kts | 121° |
| 2026-05-07 11:34 | -19.54966 | 134.01133 | 40262 ft | 581 kts | 120° |
| 2026-05-07 11:34 | -19.58750 | 134.08709 | 40266 ft | 581 kts | 120° |
| 2026-05-07 11:35 | -19.62527 | 134.16279 | 40272 ft | 581 kts | 120° |
| 2026-05-07 11:35 | -19.66397 | 134.23752 | 40265 ft | 580 kts | 123° |
| 2026-05-07 11:36 | -19.70483 | 134.31142 | 40268 ft | 580 kts | 123° |
| 2026-05-07 11:36 | -19.74543 | 134.38558 | 40255 ft | 581 kts | 123° |
| 2026-05-07 11:37 | -19.78579 | 134.45994 | 40259 ft | 581 kts | 122° |
| 2026-05-07 11:37 | -19.82606 | 134.53434 | 40285 ft | 581 kts | 122° |
| 2026-05-07 11:38 | -19.86608 | 134.60836 | 40268 ft | 581 kts | 122° |
| 2026-05-07 11:38 | -19.90632 | 134.68288 | 40267 ft | 581 kts | 122° |
| 2026-05-07 11:39 | -19.94655 | 134.75747 | 40279 ft | 582 kts | 122° |
| 2026-05-07 11:39 | -19.98682 | 134.83222 | 40280 ft | 582 kts | 122° |
| 2026-05-07 11:40 | -20.02707 | 134.90704 | 40284 ft | 582 kts | 122° |
| 2026-05-07 11:40 | -20.06726 | 134.98185 | 40289 ft | 583 kts | 122° |
| 2026-05-07 11:41 | -20.10743 | 135.05672 | 40282 ft | 583 kts | 122° |
| 2026-05-07 11:41 | -20.14739 | 135.13128 | 40281 ft | 583 kts | 122° |
| 2026-05-07 11:42 | -20.18755 | 135.20632 | 40289 ft | 583 kts | 122° |
| 2026-05-07 11:42 | -20.22772 | 135.28149 | 40285 ft | 583 kts | 122° |
| 2026-05-07 11:43 | -20.26791 | 135.35678 | 40287 ft | 584 kts | 122° |
| 2026-05-07 11:43 | -20.30801 | 135.43200 | 40285 ft | 584 kts | 121° |
| 2026-05-07 11:44 | -20.34802 | 135.50717 | 40297 ft | 584 kts | 121° |
| 2026-05-07 11:44 | -20.38806 | 135.58247 | 40292 ft | 584 kts | 121° |
| 2026-05-07 11:45 | -20.42804 | 135.65778 | 40289 ft | 584 kts | 121° |
| 2026-05-07 11:45 | -20.46776 | 135.73268 | 40292 ft | 584 kts | 121° |
| 2026-05-07 11:46 | -20.50770 | 135.80811 | 40295 ft | 584 kts | 121° |
| 2026-05-07 11:46 | -20.54762 | 135.88359 | 40292 ft | 584 kts | 121° |
| 2026-05-07 11:47 | -20.58754 | 135.95918 | 40294 ft | 584 kts | 121° |
| 2026-05-07 11:47 | -20.62741 | 136.03477 | 40299 ft | 584 kts | 121° |
| 2026-05-07 11:48 | -20.66725 | 136.11042 | 40297 ft | 584 kts | 121° |
| 2026-05-07 11:48 | -20.70706 | 136.18609 | 40296 ft | 584 kts | 121° |
| 2026-05-07 11:49 | -20.74684 | 136.26181 | 40301 ft | 585 kts | 121° |
| 2026-05-07 11:49 | -20.78652 | 136.33768 | 40305 ft | 585 kts | 121° |
| 2026-05-07 11:50 | -20.82601 | 136.41326 | 40303 ft | 585 kts | 120° |
| 2026-05-07 11:50 | -20.86566 | 136.48920 | 40303 ft | 585 kts | 120° |
| 2026-05-07 11:51 | -20.90535 | 136.56535 | 40307 ft | 586 kts | 120° |
| 2026-05-07 11:51 | -20.94501 | 136.64153 | 40311 ft | 586 kts | 120° |
| 2026-05-07 11:52 | -20.98440 | 136.71731 | 40310 ft | 586 kts | 120° |
| 2026-05-07 11:52 | -21.02402 | 136.79363 | 40307 ft | 586 kts | 120° |
| 2026-05-07 11:53 | -21.06361 | 136.87000 | 40310 ft | 586 kts | 120° |
| 2026-05-07 11:53 | -21.10311 | 136.94631 | 40308 ft | 586 kts | 120° |
| 2026-05-07 11:54 | -21.13597 | 137.00986 | 40308 ft | 586 kts | 120° |
| 2026-05-07 11:54 | -21.17545 | 137.08631 | 40309 ft | 587 kts | 120° |
| 2026-05-07 11:55 | -21.21491 | 137.16284 | 40310 ft | 587 kts | 120° |
| 2026-05-07 11:55 | -21.25439 | 137.23951 | 40309 ft | 587 kts | 120° |
| 2026-05-07 11:56 | -21.29384 | 137.31624 | 40307 ft | 587 kts | 120° |
| 2026-05-07 11:56 | -21.33331 | 137.39311 | 40309 ft | 588 kts | 120° |
| 2026-05-07 11:57 | -21.37270 | 137.46994 | 40313 ft | 588 kts | 120° |
| 2026-05-07 11:57 | -21.41184 | 137.54639 | 40311 ft | 588 kts | 120° |
| 2026-05-07 11:58 | -21.45124 | 137.62346 | 40311 ft | 588 kts | 120° |
| 2026-05-07 11:58 | -21.49056 | 137.70047 | 40315 ft | 588 kts | 120° |
| 2026-05-07 11:59 | -21.52983 | 137.77750 | 40314 ft | 588 kts | 120° |
| 2026-05-07 11:59 | -21.57062 | 137.85368 | 40317 ft | 587 kts | 127° |
| 2026-05-07 12:00 | -21.62347 | 137.91976 | 40311 ft | 580 kts | 141° |
| 2026-05-07 12:00 | -21.68585 | 137.97389 | 40304 ft | 576 kts | 147° |
| 2026-05-07 12:01 | -21.74906 | 138.02701 | 40311 ft | 576 kts | 147° |
| 2026-05-07 12:01 | -21.81195 | 138.07989 | 40317 ft | 577 kts | 147° |
| 2026-05-07 12:02 | -21.87532 | 138.13317 | 40316 ft | 577 kts | 147° |
| 2026-05-07 12:02 | -21.93870 | 138.18649 | 40324 ft | 578 kts | 147° |
| 2026-05-07 12:03 | -22.00207 | 138.23988 | 40328 ft | 578 kts | 147° |
| 2026-05-07 12:03 | -22.06544 | 138.29334 | 40329 ft | 578 kts | 147° |
| 2026-05-07 12:04 | -22.12893 | 138.34695 | 40325 ft | 579 kts | 147° |
| 2026-05-07 12:04 | -22.19229 | 138.40052 | 40329 ft | 579 kts | 147° |
| 2026-05-07 12:05 | -22.25524 | 138.45379 | 40336 ft | 578 kts | 147° |
| 2026-05-07 12:05 | -22.31855 | 138.50744 | 40333 ft | 578 kts | 147° |
| 2026-05-07 12:06 | -22.38189 | 138.56119 | 40327 ft | 578 kts | 146° |
| 2026-05-07 12:06 | -22.44513 | 138.61491 | 40328 ft | 578 kts | 146° |
| 2026-05-07 12:07 | -22.50837 | 138.66869 | 40328 ft | 578 kts | 146° |
| 2026-05-07 12:07 | -22.57160 | 138.72253 | 40329 ft | 578 kts | 146° |
| 2026-05-07 12:08 | -22.63477 | 138.77638 | 40327 ft | 578 kts | 146° |
| 2026-05-07 12:08 | -22.69795 | 138.83031 | 40329 ft | 578 kts | 146° |
| 2026-05-07 12:09 | -22.76075 | 138.88397 | 40332 ft | 578 kts | 146° |
| 2026-05-07 12:09 | -22.82397 | 138.93806 | 40337 ft | 579 kts | 146° |
| 2026-05-07 12:10 | -22.88714 | 138.99218 | 40337 ft | 579 kts | 146° |
| 2026-05-07 12:10 | -22.95040 | 139.04644 | 40341 ft | 579 kts | 146° |
| 2026-05-07 12:11 | -23.01368 | 139.10077 | 40339 ft | 580 kts | 146° |
| 2026-05-07 12:11 | -23.07698 | 139.15520 | 40339 ft | 580 kts | 146° |
| 2026-05-07 12:12 | -23.14026 | 139.20968 | 40343 ft | 580 kts | 146° |
| 2026-05-07 12:12 | -23.20347 | 139.26416 | 40342 ft | 580 kts | 146° |
| 2026-05-07 12:13 | -23.26664 | 139.31868 | 40340 ft | 580 kts | 146° |
| 2026-05-07 12:13 | -23.32953 | 139.37302 | 40345 ft | 580 kts | 146° |
| 2026-05-07 12:14 | -23.39277 | 139.42773 | 40353 ft | 581 kts | 146° |
| 2026-05-07 12:14 | -23.45601 | 139.48251 | 40348 ft | 581 kts | 146° |
| 2026-05-07 12:15 | -23.51931 | 139.53741 | 40339 ft | 581 kts | 146° |
| 2026-05-07 12:15 | -23.58258 | 139.59236 | 40357 ft | 581 kts | 146° |
| 2026-05-07 12:16 | -23.64579 | 139.64732 | 40351 ft | 581 kts | 146° |
| 2026-05-07 12:16 | -23.70900 | 139.70236 | 40352 ft | 581 kts | 146° |
| 2026-05-07 12:17 | -23.77213 | 139.75738 | 40353 ft | 581 kts | 146° |
| 2026-05-07 12:17 | -23.83531 | 139.81253 | 40350 ft | 581 kts | 146° |
| 2026-05-07 12:18 | -23.89827 | 139.86757 | 40354 ft | 581 kts | 146° |
| 2026-05-07 12:18 | -23.96160 | 139.92298 | 40358 ft | 581 kts | 146° |
| 2026-05-07 12:19 | -24.02469 | 139.97826 | 40357 ft | 581 kts | 146° |
| 2026-05-07 12:19 | -24.08746 | 140.03334 | 40357 ft | 582 kts | 146° |
| 2026-05-07 12:20 | -24.15064 | 140.08885 | 40360 ft | 582 kts | 146° |
| 2026-05-07 12:20 | -24.21391 | 140.14450 | 40366 ft | 582 kts | 146° |
| 2026-05-07 12:21 | -24.27713 | 140.20018 | 40362 ft | 582 kts | 146° |
| 2026-05-07 12:21 | -24.33987 | 140.25552 | 40367 ft | 582 kts | 146° |
| 2026-05-07 12:22 | -24.40295 | 140.31124 | 40365 ft | 582 kts | 146° |
| 2026-05-07 12:22 | -24.46605 | 140.36704 | 40369 ft | 582 kts | 146° |
| 2026-05-07 12:23 | -24.52908 | 140.42284 | 40367 ft | 582 kts | 146° |
| 2026-05-07 12:23 | -24.59217 | 140.47879 | 40368 ft | 582 kts | 146° |
| 2026-05-07 12:24 | -24.65520 | 140.53475 | 40373 ft | 582 kts | 146° |
| 2026-05-07 12:24 | -24.71818 | 140.59073 | 40372 ft | 583 kts | 146° |
| 2026-05-07 12:25 | -24.78124 | 140.64687 | 40378 ft | 583 kts | 146° |
| 2026-05-07 12:25 | -24.84395 | 140.70278 | 40384 ft | 583 kts | 146° |
| 2026-05-07 12:26 | -24.90714 | 140.75918 | 40388 ft | 584 kts | 146° |
| 2026-05-07 12:26 | -24.97025 | 140.81559 | 40391 ft | 584 kts | 145° |
| 2026-05-07 12:27 | -25.03298 | 140.87175 | 40391 ft | 584 kts | 145° |
| 2026-05-07 12:27 | -25.09608 | 140.92830 | 40393 ft | 584 kts | 145° |
| 2026-05-07 12:28 | -25.15909 | 140.98485 | 40377 ft | 584 kts | 145° |
| 2026-05-07 12:28 | -25.22209 | 141.04147 | 40385 ft | 583 kts | 145° |
| 2026-05-07 12:29 | -25.28502 | 141.09806 | 40394 ft | 583 kts | 145° |
| 2026-05-07 12:29 | -25.34794 | 141.15472 | 40386 ft | 583 kts | 145° |
| 2026-05-07 12:30 | -25.41073 | 141.21153 | 40393 ft | 583 kts | 145° |
| 2026-05-07 12:30 | -25.47316 | 141.26802 | 40392 ft | 583 kts | 145° |
| 2026-05-07 12:31 | -25.53637 | 141.32520 | 40397 ft | 583 kts | 145° |
| 2026-05-07 12:31 | -25.59870 | 141.38167 | 40399 ft | 583 kts | 145° |
| 2026-05-07 12:32 | -25.66150 | 141.43867 | 40402 ft | 583 kts | 145° |
| 2026-05-07 12:32 | -25.72432 | 141.49578 | 40406 ft | 583 kts | 145° |
| 2026-05-07 12:33 | -25.81841 | 141.58146 | 40411 ft | 584 kts | 145° |
| 2026-05-07 12:33 | -25.88084 | 141.63842 | 40415 ft | 584 kts | 145° |
| 2026-05-07 12:34 | -25.94352 | 141.69569 | 40421 ft | 584 kts | 145° |
| 2026-05-07 12:34 | -26.00627 | 141.75309 | 40420 ft | 584 kts | 145° |
| 2026-05-07 12:35 | -26.06897 | 141.81054 | 40419 ft | 583 kts | 145° |
| 2026-05-07 12:35 | -26.13167 | 141.86807 | 40419 ft | 583 kts | 145° |
| 2026-05-07 12:36 | -26.19422 | 141.92554 | 40423 ft | 583 kts | 145° |
| 2026-05-07 12:36 | -26.25675 | 141.98308 | 40427 ft | 583 kts | 145° |
| 2026-05-07 12:37 | -26.31887 | 142.04032 | 40428 ft | 583 kts | 145° |
| 2026-05-07 12:37 | -26.38142 | 142.09803 | 40430 ft | 583 kts | 145° |
| 2026-05-07 12:38 | -26.44388 | 142.15575 | 40428 ft | 583 kts | 145° |
| 2026-05-07 12:38 | -26.50637 | 142.21359 | 40428 ft | 583 kts | 145° |
| 2026-05-07 12:39 | -26.56834 | 142.27103 | 40435 ft | 583 kts | 145° |
| 2026-05-07 12:39 | -26.63089 | 142.32909 | 40439 ft | 583 kts | 145° |
| 2026-05-07 12:40 | -26.69328 | 142.38708 | 40438 ft | 583 kts | 145° |
| 2026-05-07 12:40 | -26.75573 | 142.44522 | 40443 ft | 583 kts | 145° |
| 2026-05-07 12:41 | -26.80760 | 142.49357 | 40447 ft | 583 kts | 145° |
| 2026-05-07 12:41 | -26.86993 | 142.55175 | 40449 ft | 583 kts | 145° |
| 2026-05-07 12:42 | -26.93228 | 142.61004 | 40457 ft | 583 kts | 145° |
| 2026-05-07 12:42 | -26.99463 | 142.66841 | 40455 ft | 584 kts | 145° |
| 2026-05-07 12:43 | -27.05689 | 142.72679 | 40456 ft | 583 kts | 145° |
| 2026-05-07 12:43 | -27.11917 | 142.78527 | 40464 ft | 583 kts | 145° |
| 2026-05-07 12:44 | -27.18132 | 142.84372 | 40456 ft | 583 kts | 145° |
| 2026-05-07 12:44 | -27.24349 | 142.90228 | 40456 ft | 582 kts | 145° |
| 2026-05-07 12:45 | -27.30541 | 142.96069 | 40457 ft | 582 kts | 145° |
| 2026-05-07 12:45 | -27.36719 | 143.01905 | 40456 ft | 582 kts | 145° |
| 2026-05-07 12:46 | -27.42929 | 143.07780 | 40466 ft | 582 kts | 145° |
| 2026-05-07 12:46 | -27.49133 | 143.13659 | 40465 ft | 583 kts | 145° |
| 2026-05-07 12:47 | -27.55335 | 143.19545 | 40472 ft | 583 kts | 145° |
| 2026-05-07 12:47 | -27.61541 | 143.25444 | 40472 ft | 583 kts | 145° |
| 2026-05-07 12:48 | -27.67688 | 143.31295 | 40474 ft | 583 kts | 145° |
| 2026-05-07 12:48 | -27.73879 | 143.37198 | 40476 ft | 582 kts | 145° |
| 2026-05-07 12:49 | -27.80064 | 143.43103 | 40476 ft | 582 kts | 145° |
| 2026-05-07 12:49 | -27.86242 | 143.49012 | 40483 ft | 581 kts | 145° |
| 2026-05-07 12:50 | -27.92416 | 143.54925 | 40482 ft | 581 kts | 144° |
| 2026-05-07 12:50 | -27.98538 | 143.60798 | 40478 ft | 581 kts | 144° |
| 2026-05-07 12:51 | -28.04747 | 143.66764 | 40493 ft | 581 kts | 144° |
| 2026-05-07 12:51 | -28.10904 | 143.72689 | 40486 ft | 581 kts | 144° |
| 2026-05-07 12:52 | -28.17020 | 143.78584 | 40490 ft | 580 kts | 144° |
| 2026-05-07 12:52 | -28.23169 | 143.84519 | 40486 ft | 580 kts | 144° |
| 2026-05-07 12:53 | -28.29311 | 143.90458 | 40488 ft | 580 kts | 144° |
| 2026-05-07 12:53 | -28.35441 | 143.96393 | 40489 ft | 579 kts | 144° |
| 2026-05-07 12:54 | -28.41569 | 144.02337 | 40490 ft | 579 kts | 144° |
| 2026-05-07 12:54 | -28.47694 | 144.08287 | 40493 ft | 579 kts | 144° |
| 2026-05-07 12:55 | -28.53768 | 144.14196 | 40489 ft | 578 kts | 144° |
| 2026-05-07 12:55 | -28.59871 | 144.20144 | 40491 ft | 578 kts | 144° |
| 2026-05-07 12:56 | -28.65973 | 144.26098 | 40489 ft | 578 kts | 144° |
| 2026-05-07 12:56 | -28.72073 | 144.32062 | 40495 ft | 577 kts | 144° |
| 2026-05-07 12:57 | -28.78169 | 144.38031 | 40501 ft | 577 kts | 144° |
| 2026-05-07 12:57 | -28.84264 | 144.44008 | 40500 ft | 577 kts | 144° |
| 2026-05-07 12:58 | -28.90346 | 144.49979 | 40501 ft | 577 kts | 144° |
| 2026-05-07 12:58 | -28.96425 | 144.55955 | 40499 ft | 576 kts | 144° |
| 2026-05-07 12:59 | -29.02733 | 144.61498 | 40498 ft | 566 kts | 155° |
| 2026-05-07 12:59 | -29.09409 | 144.66297 | 40496 ft | 567 kts | 154° |
| 2026-05-07 13:00 | -29.16071 | 144.71132 | 40503 ft | 566 kts | 154° |
| 2026-05-07 13:00 | -29.22725 | 144.75965 | 40504 ft | 566 kts | 154° |
| 2026-05-07 13:01 | -29.29377 | 144.80801 | 40506 ft | 566 kts | 154° |
| 2026-05-07 13:01 | -29.35976 | 144.85607 | 40503 ft | 565 kts | 154° |
| 2026-05-07 13:02 | -29.42609 | 144.90447 | 40508 ft | 565 kts | 154° |
| 2026-05-07 13:02 | -29.49244 | 144.95296 | 40508 ft | 564 kts | 154° |
| 2026-05-07 13:03 | -29.55865 | 145.00143 | 40510 ft | 564 kts | 154° |
| 2026-05-07 13:03 | -29.62479 | 145.04991 | 40510 ft | 564 kts | 154° |
| 2026-05-07 13:04 | -29.69091 | 145.09847 | 40509 ft | 563 kts | 154° |
| 2026-05-07 13:04 | -29.75689 | 145.14699 | 40510 ft | 563 kts | 154° |
| 2026-05-07 13:05 | -29.82283 | 145.19557 | 40514 ft | 562 kts | 154° |
| 2026-05-07 13:05 | -29.88829 | 145.24386 | 40516 ft | 562 kts | 154° |
| 2026-05-07 13:06 | -29.95416 | 145.29253 | 40514 ft | 561 kts | 154° |
| 2026-05-07 13:06 | -30.01981 | 145.34112 | 40513 ft | 560 kts | 154° |
| 2026-05-07 13:07 | -30.08529 | 145.38967 | 40505 ft | 559 kts | 154° |
| 2026-05-07 13:07 | -30.15079 | 145.43830 | 40508 ft | 559 kts | 154° |
| 2026-05-07 13:08 | -30.21607 | 145.48684 | 40506 ft | 558 kts | 154° |
| 2026-05-07 13:08 | -30.28102 | 145.53522 | 40507 ft | 558 kts | 154° |
| 2026-05-07 13:09 | -30.34619 | 145.58385 | 40508 ft | 557 kts | 154° |
| 2026-05-07 13:09 | -30.41127 | 145.63248 | 40509 ft | 556 kts | 154° |
| 2026-05-07 13:10 | -30.47635 | 145.68119 | 40503 ft | 556 kts | 154° |
| 2026-05-07 13:10 | -30.54125 | 145.72985 | 40506 ft | 555 kts | 154° |
| 2026-05-07 13:11 | -30.60616 | 145.77859 | 40506 ft | 554 kts | 153° |
| 2026-05-07 13:11 | -30.67080 | 145.82721 | 40504 ft | 554 kts | 154° |
| 2026-05-07 13:12 | -30.73542 | 145.87588 | 40504 ft | 553 kts | 153° |
| 2026-05-07 13:12 | -30.79964 | 145.92434 | 40511 ft | 553 kts | 153° |
| 2026-05-07 13:13 | -30.86406 | 145.97302 | 40510 ft | 553 kts | 153° |
| 2026-05-07 13:13 | -30.92859 | 146.02187 | 40508 ft | 552 kts | 153° |
| 2026-05-07 13:14 | -30.99303 | 146.07073 | 40509 ft | 552 kts | 153° |
| 2026-05-07 13:14 | -31.05727 | 146.11952 | 40504 ft | 551 kts | 153° |
| 2026-05-07 13:15 | -31.12157 | 146.16844 | 40503 ft | 550 kts | 153° |
| 2026-05-07 13:15 | -31.18526 | 146.21696 | 40507 ft | 550 kts | 153° |
| 2026-05-07 13:16 | -31.24931 | 146.26585 | 40512 ft | 549 kts | 153° |
| 2026-05-07 13:16 | -31.31316 | 146.31466 | 40510 ft | 548 kts | 153° |
| 2026-05-07 13:17 | -31.37699 | 146.36354 | 40509 ft | 547 kts | 153° |
| 2026-05-07 13:17 | -31.44061 | 146.41234 | 40506 ft | 546 kts | 153° |
| 2026-05-07 13:18 | -31.50414 | 146.46114 | 40497 ft | 545 kts | 153° |
| 2026-05-07 13:18 | -31.56756 | 146.50995 | 40494 ft | 544 kts | 153° |
| 2026-05-07 13:19 | -31.63083 | 146.55872 | 40489 ft | 543 kts | 153° |
| 2026-05-07 13:19 | -31.69364 | 146.60721 | 40484 ft | 543 kts | 153° |
| 2026-05-07 13:20 | -31.75664 | 146.65593 | 40483 ft | 542 kts | 153° |
| 2026-05-07 13:20 | -31.81962 | 146.70471 | 40484 ft | 542 kts | 153° |
| 2026-05-07 13:21 | -31.88256 | 146.75355 | 40483 ft | 541 kts | 153° |
| 2026-05-07 13:21 | -31.94539 | 146.80238 | 40475 ft | 541 kts | 153° |
| 2026-05-07 13:22 | -32.00770 | 146.85089 | 40478 ft | 540 kts | 153° |
| 2026-05-07 13:22 | -32.07017 | 146.89960 | 40474 ft | 540 kts | 153° |
| 2026-05-07 13:23 | -32.13292 | 146.94862 | 40475 ft | 539 kts | 153° |
| 2026-05-07 13:23 | -32.19547 | 146.99755 | 40479 ft | 539 kts | 153° |
| 2026-05-07 13:24 | -32.25808 | 147.04662 | 40477 ft | 539 kts | 153° |
| 2026-05-07 13:24 | -32.32067 | 147.09576 | 40476 ft | 539 kts | 152° |
| 2026-05-07 13:25 | -32.38284 | 147.14464 | 40473 ft | 539 kts | 153° |
| 2026-05-07 13:25 | -32.44523 | 147.19378 | 40471 ft | 538 kts | 152° |
| 2026-05-07 13:26 | -32.50760 | 147.24300 | 40469 ft | 538 kts | 152° |
| 2026-05-07 13:26 | -32.56984 | 147.29219 | 40464 ft | 537 kts | 152° |
| 2026-05-07 13:27 | -32.63201 | 147.34140 | 40467 ft | 537 kts | 152° |
| 2026-05-07 13:27 | -32.69411 | 147.39065 | 40465 ft | 536 kts | 152° |
| 2026-05-07 13:28 | -32.75608 | 147.43988 | 40463 ft | 535 kts | 152° |
| 2026-05-07 13:28 | -32.81750 | 147.48876 | 40463 ft | 534 kts | 152° |
| 2026-05-07 13:29 | -32.87924 | 147.53798 | 40462 ft | 533 kts | 152° |
| 2026-05-07 13:29 | -32.94076 | 147.58710 | 40458 ft | 532 kts | 152° |
| 2026-05-07 13:30 | -33.00213 | 147.63618 | 40456 ft | 530 kts | 152° |
| 2026-05-07 13:30 | -33.06325 | 147.68515 | 40455 ft | 529 kts | 152° |
| 2026-05-07 13:31 | -33.12427 | 147.73412 | 40448 ft | 528 kts | 152° |
| 2026-05-07 13:31 | -33.18479 | 147.78276 | 40435 ft | 526 kts | 152° |
| 2026-05-07 13:32 | -33.24543 | 147.83156 | 40440 ft | 525 kts | 152° |
| 2026-05-07 13:32 | -33.30608 | 147.88044 | 40438 ft | 525 kts | 152° |
| 2026-05-07 13:33 | -33.35521 | 147.92333 | 40437 ft | 530 kts | 146° |
| 2026-05-07 13:33 | -33.40853 | 147.98500 | 40429 ft | 537 kts | 137° |
| 2026-05-07 13:34 | -33.48441 | 148.08348 | 40426 ft | 536 kts | 138° |
| 2026-05-07 13:35 | -33.53511 | 148.14916 | 40423 ft | 537 kts | 138° |
| 2026-05-07 13:35 | -33.58573 | 148.21507 | 40425 ft | 538 kts | 138° |
| 2026-05-07 13:36 | -33.63640 | 148.28120 | 40426 ft | 538 kts | 138° |
| 2026-05-07 13:36 | -33.68714 | 148.34756 | 40249 ft | 538 kts | 138° |
| 2026-05-07 13:36 | -33.71227 | 148.38050 | 39980 ft | 531 kts | 138° |
| 2026-05-07 13:37 | -33.73676 | 148.41266 | 39540 ft | 523 kts | 138° |
| 2026-05-07 13:37 | -33.76137 | 148.44501 | 39187 ft | 512 kts | 138° |
| 2026-05-07 13:37 | -33.78493 | 148.47596 | 38835 ft | 506 kts | 138° |
| 2026-05-07 13:37 | -33.80871 | 148.50718 | 38412 ft | 505 kts | 138° |
| 2026-05-07 13:38 | -33.83241 | 148.53830 | 37991 ft | 503 kts | 138° |
| 2026-05-07 13:38 | -33.85586 | 148.56917 | 37588 ft | 497 kts | 138° |
| 2026-05-07 13:38 | -33.87908 | 148.59978 | 37194 ft | 492 kts | 138° |
| 2026-05-07 13:38 | -33.90202 | 148.63004 | 36816 ft | 487 kts | 138° |
| 2026-05-07 13:39 | -33.92478 | 148.66009 | 36416 ft | 483 kts | 138° |
| 2026-05-07 13:39 | -33.94721 | 148.68972 | 36041 ft | 479 kts | 138° |
| 2026-05-07 13:39 | -33.96964 | 148.71936 | 35671 ft | 475 kts | 138° |
| 2026-05-07 13:39 | -33.99178 | 148.74867 | 35288 ft | 470 kts | 138° |
| 2026-05-07 13:40 | -34.01367 | 148.77767 | 34934 ft | 466 kts | 138° |
| 2026-05-07 13:40 | -34.03540 | 148.80646 | 34583 ft | 462 kts | 138° |
| 2026-05-07 13:40 | -34.05694 | 148.83504 | 34228 ft | 458 kts | 138° |
| 2026-05-07 13:40 | -34.07828 | 148.86338 | 33815 ft | 455 kts | 139° |
| 2026-05-07 13:41 | -34.09945 | 148.89151 | 33417 ft | 451 kts | 139° |
| 2026-05-07 13:41 | -34.12026 | 148.91920 | 33028 ft | 448 kts | 139° |
| 2026-05-07 13:41 | -34.14111 | 148.94695 | 32631 ft | 444 kts | 139° |
| 2026-05-07 13:41 | -34.16182 | 148.97455 | 32257 ft | 441 kts | 139° |
| 2026-05-07 13:42 | -34.18235 | 149.00191 | 31876 ft | 438 kts | 140° |
| 2026-05-07 13:42 | -34.20274 | 149.02912 | 31522 ft | 434 kts | 140° |
| 2026-05-07 13:42 | -34.22292 | 149.05606 | 31142 ft | 432 kts | 140° |
| 2026-05-07 13:42 | -34.24301 | 149.08289 | 30779 ft | 429 kts | 140° |
| 2026-05-07 13:43 | -34.26298 | 149.10960 | 30417 ft | 425 kts | 141° |
| 2026-05-07 13:43 | -34.28274 | 149.13604 | 29994 ft | 422 kts | 141° |
| 2026-05-07 13:43 | -34.30213 | 149.16199 | 29591 ft | 420 kts | 141° |
| 2026-05-07 13:43 | -34.32165 | 149.18814 | 29183 ft | 417 kts | 141° |
| 2026-05-07 13:44 | -34.34127 | 149.21444 | 28777 ft | 415 kts | 141° |
| 2026-05-07 13:44 | -34.36031 | 149.23999 | 28382 ft | 412 kts | 141° |
| 2026-05-07 13:44 | -34.37945 | 149.26569 | 27987 ft | 410 kts | 141° |
| 2026-05-07 13:44 | -34.39846 | 149.29125 | 27605 ft | 407 kts | 141° |
| 2026-05-07 13:45 | -34.41670 | 149.31756 | 27208 ft | 413 kts | 132° |
| 2026-05-07 13:45 | -34.43023 | 149.34881 | 26836 ft | 427 kts | 117° |
| 2026-05-07 13:45 | -34.43725 | 149.38419 | 26494 ft | 436 kts | 103° |
| 2026-05-07 13:45 | -34.44114 | 149.42053 | 26385 ft | 434 kts | 104° |
| 2026-05-07 13:46 | -34.44541 | 149.45673 | 26375 ft | 435 kts | 104° |
| 2026-05-07 13:46 | -34.44983 | 149.49311 | 26375 ft | 436 kts | 104° |
| 2026-05-07 13:46 | -34.45421 | 149.52919 | 26372 ft | 436 kts | 104° |
| 2026-05-07 13:46 | -34.45860 | 149.56570 | 26368 ft | 436 kts | 104° |
| 2026-05-07 13:47 | -34.46298 | 149.60226 | 26395 ft | 442 kts | 104° |
| 2026-05-07 13:47 | -34.46752 | 149.63992 | 26212 ft | 461 kts | 104° |
| 2026-05-07 13:47 | -34.47223 | 149.67910 | 25970 ft | 476 kts | 104° |
| 2026-05-07 13:47 | -34.47690 | 149.71880 | 25721 ft | 475 kts | 103° |
| 2026-05-07 13:48 | -34.48148 | 149.75832 | 25482 ft | 472 kts | 104° |
| 2026-05-07 13:48 | -34.48602 | 149.79751 | 25153 ft | 467 kts | 104° |
| 2026-05-07 13:48 | -34.49044 | 149.83575 | 24711 ft | 457 kts | 104° |
| 2026-05-07 13:48 | -34.49464 | 149.87342 | 24356 ft | 446 kts | 101° |
| 2026-05-07 13:49 | -34.49811 | 149.91045 | 24025 ft | 441 kts | 99° |
| 2026-05-07 13:49 | -34.50091 | 149.94760 | 23701 ft | 443 kts | 98° |
| 2026-05-07 13:49 | -34.50311 | 149.98484 | 23330 ft | 441 kts | 97° |
| 2026-05-07 13:49 | -34.50467 | 150.02187 | 22971 ft | 439 kts | 96° |
| 2026-05-07 13:50 | -34.50557 | 150.05871 | 22611 ft | 436 kts | 94° |
| 2026-05-07 13:50 | -34.50582 | 150.09552 | 22269 ft | 434 kts | 93° |
| 2026-05-07 13:50 | -34.50545 | 150.13188 | 21963 ft | 427 kts | 92° |
| 2026-05-07 13:50 | -34.50381 | 150.16725 | 21856 ft | 413 kts | 84° |
| 2026-05-07 13:51 | -34.49551 | 150.19987 | 21693 ft | 402 kts | 64° |
| 2026-05-07 13:51 | -34.48202 | 150.22941 | 21280 ft | 400 kts | 65° |
| 2026-05-07 13:51 | -34.47047 | 150.25969 | 20827 ft | 391 kts | 69° |
| 2026-05-07 13:51 | -34.45987 | 150.28967 | 20358 ft | 384 kts | 70° |
| 2026-05-07 13:52 | -34.44941 | 150.31911 | 19926 ft | 377 kts | 70° |
| 2026-05-07 13:52 | -34.43908 | 150.34803 | 19490 ft | 371 kts | 70° |
| 2026-05-07 13:52 | -34.42900 | 150.37609 | 19071 ft | 366 kts | 70° |
| 2026-05-07 13:52 | -34.41883 | 150.40421 | 18643 ft | 363 kts | 70° |
| 2026-05-07 13:53 | -34.40869 | 150.43208 | 18182 ft | 360 kts | 70° |
| 2026-05-07 13:53 | -34.39861 | 150.45965 | 17715 ft | 357 kts | 70° |
| 2026-05-07 13:53 | -34.38860 | 150.48694 | 17222 ft | 353 kts | 70° |
| 2026-05-07 13:53 | -34.37868 | 150.51389 | 16767 ft | 349 kts | 70° |
| 2026-05-07 13:54 | -34.36879 | 150.54056 | 16469 ft | 338 kts | 70° |
| 2026-05-07 13:54 | -34.35938 | 150.56564 | 16550 ft | 318 kts | 70° |
| 2026-05-07 13:54 | -34.35028 | 150.58978 | 16443 ft | 313 kts | 70° |
| 2026-05-07 13:54 | -34.34200 | 150.61393 | 16034 ft | 303 kts | 78° |
| 2026-05-07 13:55 | -34.33729 | 150.63773 | 15585 ft | 281 kts | 85° |
| 2026-05-07 13:55 | -34.33321 | 150.66039 | 15139 ft | 271 kts | 85° |
| 2026-05-07 13:55 | -34.32913 | 150.68266 | 14706 ft | 276 kts | 85° |
| 2026-05-07 13:55 | -34.32501 | 150.70574 | 14285 ft | 283 kts | 85° |
| 2026-05-07 13:56 | -34.32087 | 150.72898 | 13850 ft | 282 kts | 85° |
| 2026-05-07 13:56 | -34.31674 | 150.75201 | 13373 ft | 279 kts | 84° |
| 2026-05-07 13:56 | -34.31266 | 150.77484 | 12902 ft | 276 kts | 85° |
| 2026-05-07 13:56 | -34.30863 | 150.79744 | 12443 ft | 274 kts | 85° |
| 2026-05-07 13:57 | -34.30467 | 150.81988 | 11983 ft | 271 kts | 85° |
| 2026-05-07 13:57 | -34.30076 | 150.84212 | 11549 ft | 269 kts | 85° |
| 2026-05-07 13:57 | -34.29692 | 150.86416 | 11381 ft | 267 kts | 85° |
| 2026-05-07 13:57 | -34.29315 | 150.88609 | 11361 ft | 267 kts | 85° |
| 2026-05-07 13:58 | -34.28934 | 150.90804 | 11355 ft | 266 kts | 85° |
| 2026-05-07 13:58 | -34.28555 | 150.92999 | 11353 ft | 267 kts | 85° |
| 2026-05-07 13:58 | -34.28186 | 150.95163 | 11347 ft | 267 kts | 85° |
| 2026-05-07 13:58 | -34.27807 | 150.97392 | 11301 ft | 266 kts | 85° |
| 2026-05-07 13:59 | -34.27502 | 150.99535 | 11063 ft | 252 kts | 92° |
| 2026-05-07 13:59 | -34.27518 | 151.01574 | 10519 ft | 243 kts | 98° |
| 2026-05-07 13:59 | -34.27494 | 151.03657 | 9723 ft | 245 kts | 94° |
| 2026-05-07 13:59 | -34.27041 | 151.05642 | 8917 ft | 249 kts | 71° |
| 2026-05-07 14:00 | -34.26341 | 151.07537 | 8070 ft | 245 kts | 71° |
| 2026-05-07 14:00 | -34.25666 | 151.09412 | 7262 ft | 241 kts | 71° |
| 2026-05-07 14:00 | -34.24983 | 151.11232 | 6452 ft | 237 kts | 63° |
| 2026-05-07 14:00 | -34.23960 | 151.12814 | 5573 ft | 238 kts | 53° |
| 2026-05-07 14:01 | -34.22902 | 151.14330 | 5177 ft | 236 kts | 53° |
| 2026-05-07 14:01 | -34.21834 | 151.15846 | 5064 ft | 235 kts | 53° |
| 2026-05-07 14:01 | -34.20799 | 151.17310 | 5054 ft | 226 kts | 53° |
| 2026-05-07 14:01 | -34.19689 | 151.18663 | 5060 ft | 228 kts | 43° |
| 2026-05-07 14:02 | -34.18467 | 151.19885 | 5056 ft | 228 kts | 42° |
| 2026-05-07 14:02 | -34.17255 | 151.21109 | 5061 ft | 228 kts | 42° |
| 2026-05-07 14:02 | -34.16021 | 151.22290 | 5058 ft | 223 kts | 32° |
| 2026-05-07 14:02 | -34.14593 | 151.22874 | 5071 ft | 215 kts | 7° |
| 2026-05-07 14:03 | -34.13135 | 151.22980 | 4964 ft | 211 kts | 346° |
| 2026-05-07 14:03 | -34.11726 | 151.22589 | 4789 ft | 208 kts | 339° |
| 2026-05-07 14:03 | -34.10307 | 151.22106 | 4569 ft | 212 kts | 335° |
| 2026-05-07 14:03 | -34.08964 | 151.21595 | 4088 ft | 199 kts | 334° |
| 2026-05-07 14:04 | -34.07638 | 151.21070 | 3332 ft | 204 kts | 333° |
| 2026-05-07 14:04 | -34.06247 | 151.20619 | 2606 ft | 208 kts | 342° |
| 2026-05-07 14:04 | -34.04863 | 151.20367 | 2131 ft | 193 kts | 342° |
| 2026-05-07 14:04 | -34.03616 | 151.20114 | 1863 ft | 171 kts | 330° |
| 2026-05-07 14:05 | -34.02474 | 151.19905 | 1530 ft | 164 kts | 332° |
| 2026-05-07 14:05 | -34.01415 | 151.19519 | 1262 ft | 167 kts | 326° |
| 2026-05-07 14:05 | -34.00311 | 151.19103 | 889 ft | 165 kts | 337° |
| 2026-05-07 14:05 | -33.99246 | 151.18817 | 662 ft | 147 kts | 332° |
| 2026-05-07 14:06 | -33.98254 | 151.18587 | 478 ft | 144 kts | 339° |
| 2026-05-07 14:06 | -33.97331 | 151.18300 | 261 ft | 131 kts | 340° |
| 2026-05-07 14:06 | -33.96465 | 151.18082 | 90 ft | 123 kts | 339° |
| 2026-05-07 14:06 | -33.95694 | 151.17867 | 27 ft | 98 kts | 349° |
| 2026-05-07 14:07 | -33.95146 | 151.17730 | 28 ft | 68 kts | 346° |
| 2026-05-07 14:07 | -33.94752 | 151.17629 | 28 ft | 49 kts | 349° |
| 2026-05-07 14:07 | -33.94510 | 151.17527 | 29 ft | 16 kts | 330° |
| 2026-05-07 14:07 | -33.94439 | 151.17472 | 29 ft | 17 kts | 324° |
| 2026-05-07 14:08 | -33.94417 | 151.17453 | 29 ft | 4 kts | 322° |
| 2026-05-07 14:08 | -33.94379 | 151.17416 | 30 ft | 9 kts | 318° |
| 2026-05-07 14:08 | -33.94293 | 151.17320 | 29 ft | 24 kts | 328° |
| 2026-05-07 14:08 | -33.94093 | 151.17253 | 27 ft | 35 kts | 348° |
| 2026-05-07 14:09 | -33.93853 | 151.17192 | 23 ft | 34 kts | 349° |
| 2026-05-07 14:09 | -33.93653 | 151.17138 | 28 ft | 26 kts | 345° |
| 2026-05-07 14:09 | -33.93485 | 151.17090 | 30 ft | 24 kts | 350° |
| 2026-05-07 14:09 | -33.93332 | 151.17042 | 29 ft | 22 kts | 324° |
| 2026-05-07 14:10 | -33.93293 | 151.16941 | 30 ft | 10 kts | 252° |
| 2026-05-07 14:10 | -33.93334 | 151.16897 | 29 ft | 10 kts | 202° |
| 2026-05-07 14:10 | -33.93409 | 151.16893 | 28 ft | 12 kts | 170° |
| 2026-05-07 14:10 | -33.93452 | 151.16904 | 29 ft | 1 kts | 166° |
| 2026-05-07 14:11 | -33.93474 | 151.16911 | 29 ft | 0 kts | 165° |
| 2026-05-07 14:11 | -33.93487 | 151.16914 | 29 ft | 4 kts | 169° |
| 2026-05-07 14:11 | -33.93529 | 151.16915 | 31 ft | 8 kts | 180° |
| 2026-05-07 14:11 | -33.93583 | 151.16916 | 29 ft | 5 kts | 177° |
| 2026-05-07 14:12 | -33.93613 | 151.16919 | 29 ft | 3 kts | 179° |
| 2026-05-07 14:12 | -33.93618 | 151.16919 | 30 ft | 0 kts | 178° |